<?xml version="1.0" encoding="UTF-8" standalone="no" ?>
<gpx xmlns="http://www.topografix.com/GPX/1/1" xmlns:xsi="http://www.w3.org/2001/XMLSchema-instance" xsi:schemaLocation="http://www.topografix.com/GPX/1/1 http://www.topografix.com/GPX/1/1/gpx.xsd" version="1.1" creator="VisuGPX - https://www.visugpx.com">
  <metadata>
    <name>GR54-Etape 6 (bivouac au lac noir a ajouter)</name>
    <desc><![CDATA[

]]></desc>
  </metadata>
  <trk>
    <name><![CDATA[GR54-Etape 6 (bivouac au lac noir a ajouter)]]></name>
    <trkseg>
      <trkpt lat="45.03364" lon="6.10663">
        <ele>1388.9</ele>
        <time>2021-07-12T22:53:57.88Z</time>
      </trkpt>
      <trkpt lat="45.03373" lon="6.10689">
        <ele>1385.9</ele>
        <time>2021-07-12T22:54:21.27Z</time>
      </trkpt>
      <trkpt lat="45.03375" lon="6.107">
        <ele>1384.7</ele>
        <time>2021-07-12T22:54:30.44Z</time>
      </trkpt>
      <trkpt lat="45.03376" lon="6.10706">
        <ele>1384.1</ele>
        <time>2021-07-12T22:54:35.42Z</time>
      </trkpt>
      <trkpt lat="45.03376" lon="6.10714">
        <ele>1383.7</ele>
        <time>2021-07-12T22:54:41.88Z</time>
      </trkpt>
      <trkpt lat="45.03376" lon="6.10728">
        <ele>1382.9</ele>
        <time>2021-07-12T22:54:53.19Z</time>
      </trkpt>
      <trkpt lat="45.03376" lon="6.10744">
        <ele>1382.1</ele>
        <time>2021-07-12T22:55:06.11Z</time>
      </trkpt>
      <trkpt lat="45.03376" lon="6.1075">
        <ele>1381.7</ele>
        <time>2021-07-12T22:55:10.96Z</time>
      </trkpt>
      <trkpt lat="45.03377" lon="6.10754">
        <ele>1381.1</ele>
        <time>2021-07-12T22:55:14.38Z</time>
      </trkpt>
      <trkpt lat="45.03376" lon="6.10758">
        <ele>1381</ele>
        <time>2021-07-12T22:55:17.81Z</time>
      </trkpt>
      <trkpt lat="45.03382" lon="6.10799">
        <ele>1375.5</ele>
        <time>2021-07-12T22:55:51.63Z</time>
      </trkpt>
      <trkpt lat="45.03382" lon="6.10806">
        <ele>1374.8</ele>
        <time>2021-07-12T22:55:57.28Z</time>
      </trkpt>
      <trkpt lat="45.03385" lon="6.10811">
        <ele>1373.4</ele>
        <time>2021-07-12T22:56:02.58Z</time>
      </trkpt>
      <trkpt lat="45.03385" lon="6.1086">
        <ele>1368.4</ele>
        <time>2021-07-12T22:56:42.15Z</time>
      </trkpt>
      <trkpt lat="45.03383" lon="6.10877">
        <ele>1367.3</ele>
        <time>2021-07-12T22:56:56.07Z</time>
      </trkpt>
      <trkpt lat="45.03381" lon="6.10903">
        <ele>1365.3</ele>
        <time>2021-07-12T22:57:17.19Z</time>
      </trkpt>
      <trkpt lat="45.03376" lon="6.10928">
        <ele>1364.8</ele>
        <time>2021-07-12T22:57:38.18Z</time>
      </trkpt>
      <trkpt lat="45.03368" lon="6.10953">
        <ele>1366.1</ele>
        <time>2021-07-12T22:58:00.34Z</time>
      </trkpt>
      <trkpt lat="45.03359" lon="6.10974">
        <ele>1368.4</ele>
        <time>2021-07-12T22:58:20.18Z</time>
      </trkpt>
      <trkpt lat="45.03359" lon="6.1101">
        <ele>1366.7</ele>
        <time>2021-07-12T22:58:49.25Z</time>
      </trkpt>
      <trkpt lat="45.03369" lon="6.11032">
        <ele>1361.9</ele>
        <time>2021-07-12T22:59:10.38Z</time>
      </trkpt>
      <trkpt lat="45.03379" lon="6.11064">
        <ele>1356.7</ele>
        <time>2021-07-12T22:59:38.64Z</time>
      </trkpt>
      <trkpt lat="45.03389" lon="6.11099">
        <ele>1351.4</ele>
        <time>2021-07-12T23:00:09.13Z</time>
      </trkpt>
      <trkpt lat="45.03412" lon="6.11161">
        <ele>1340.2</ele>
        <time>2021-07-12T23:01:05.68Z</time>
      </trkpt>
      <trkpt lat="45.03414" lon="6.11179">
        <ele>1338.6</ele>
        <time>2021-07-12T23:01:20.40Z</time>
      </trkpt>
      <trkpt lat="45.03419" lon="6.11211">
        <ele>1335</ele>
        <time>2021-07-12T23:01:46.87Z</time>
      </trkpt>
      <trkpt lat="45.03425" lon="6.1124">
        <ele>1331.2</ele>
        <time>2021-07-12T23:02:11.27Z</time>
      </trkpt>
      <trkpt lat="45.03427" lon="6.11264">
        <ele>1329.6</ele>
        <time>2021-07-12T23:02:30.79Z</time>
      </trkpt>
      <trkpt lat="45.03428" lon="6.11281">
        <ele>1329</ele>
        <time>2021-07-12T23:02:44.57Z</time>
      </trkpt>
      <trkpt lat="45.03431" lon="6.11299">
        <ele>1327.6</ele>
        <time>2021-07-12T23:02:59.50Z</time>
      </trkpt>
      <trkpt lat="45.03433" lon="6.11316">
        <ele>1326.5</ele>
        <time>2021-07-12T23:03:13.42Z</time>
      </trkpt>
      <trkpt lat="45.03433" lon="6.11327">
        <ele>1326.4</ele>
        <time>2021-07-12T23:03:22.31Z</time>
      </trkpt>
      <trkpt lat="45.03437" lon="6.11358">
        <ele>1324.9</ele>
        <time>2021-07-12T23:03:47.76Z</time>
      </trkpt>
      <trkpt lat="45.03443" lon="6.11392">
        <ele>1323.1</ele>
        <time>2021-07-12T23:04:16.06Z</time>
      </trkpt>
      <trkpt lat="45.03446" lon="6.114">
        <ele>1322.2</ele>
        <time>2021-07-12T23:04:23.37Z</time>
      </trkpt>
      <trkpt lat="45.03454" lon="6.11403">
        <ele>1319.6</ele>
        <time>2021-07-12T23:04:32.83Z</time>
      </trkpt>
      <trkpt lat="45.03462" lon="6.11404">
        <ele>1316.9</ele>
        <time>2021-07-12T23:04:42.01Z</time>
      </trkpt>
      <trkpt lat="45.03469" lon="6.11405">
        <ele>1314.6</ele>
        <time>2021-07-12T23:04:50.05Z</time>
      </trkpt>
      <trkpt lat="45.03473" lon="6.11409">
        <ele>1313.4</ele>
        <time>2021-07-12T23:04:55.65Z</time>
      </trkpt>
      <trkpt lat="45.03485" lon="6.11422">
        <ele>1309.8</ele>
        <time>2021-07-12T23:05:12.92Z</time>
      </trkpt>
      <trkpt lat="45.03495" lon="6.11448">
        <ele>1306.8</ele>
        <time>2021-07-12T23:05:36.83Z</time>
      </trkpt>
      <trkpt lat="45.03504" lon="6.11479">
        <ele>1305.4</ele>
        <time>2021-07-12T23:06:03.89Z</time>
      </trkpt>
      <trkpt lat="45.03511" lon="6.11493">
        <ele>1305.2</ele>
        <time>2021-07-12T23:06:17.75Z</time>
      </trkpt>
      <trkpt lat="45.03518" lon="6.11512">
        <ele>1304.8</ele>
        <time>2021-07-12T23:06:35.05Z</time>
      </trkpt>
      <trkpt lat="45.03522" lon="6.11529">
        <ele>1304.3</ele>
        <time>2021-07-12T23:06:49.52Z</time>
      </trkpt>
      <trkpt lat="45.03525" lon="6.11546">
        <ele>1303.9</ele>
        <time>2021-07-12T23:07:03.67Z</time>
      </trkpt>
      <trkpt lat="45.03524" lon="6.11569">
        <ele>1303.7</ele>
        <time>2021-07-12T23:07:22.28Z</time>
      </trkpt>
      <trkpt lat="45.03523" lon="6.11581">
        <ele>1303.6</ele>
        <time>2021-07-12T23:07:32.04Z</time>
      </trkpt>
      <trkpt lat="45.0352" lon="6.11598">
        <ele>1302.4</ele>
        <time>2021-07-12T23:07:46.19Z</time>
      </trkpt>
      <trkpt lat="45.03516" lon="6.11609">
        <ele>1301.8</ele>
        <time>2021-07-12T23:07:56.18Z</time>
      </trkpt>
      <trkpt lat="45.03508" lon="6.11622">
        <ele>1301.4</ele>
        <time>2021-07-12T23:08:10.11Z</time>
      </trkpt>
      <trkpt lat="45.03484" lon="6.1165">
        <ele>1303.3</ele>
        <time>2021-07-12T23:08:45.65Z</time>
      </trkpt>
      <trkpt lat="45.03472" lon="6.11665">
        <ele>1304.8</ele>
        <time>2021-07-12T23:09:03.95Z</time>
      </trkpt>
      <trkpt lat="45.03457" lon="6.11682">
        <ele>1306.3</ele>
        <time>2021-07-12T23:09:25.92Z</time>
      </trkpt>
      <trkpt lat="45.03451" lon="6.11695">
        <ele>1306.3</ele>
        <time>2021-07-12T23:09:38.46Z</time>
      </trkpt>
      <trkpt lat="45.03445" lon="6.11711">
        <ele>1306.1</ele>
        <time>2021-07-12T23:09:53.09Z</time>
      </trkpt>
      <trkpt lat="45.03439" lon="6.11749">
        <ele>1304</ele>
        <time>2021-07-12T23:10:24.53Z</time>
      </trkpt>
      <trkpt lat="45.03435" lon="6.118">
        <ele>1300.5</ele>
        <time>2021-07-12T23:11:05.97Z</time>
      </trkpt>
      <trkpt lat="45.03435" lon="6.11852">
        <ele>1296.7</ele>
        <time>2021-07-12T23:11:47.97Z</time>
      </trkpt>
      <trkpt lat="45.03433" lon="6.11875">
        <ele>1296</ele>
        <time>2021-07-12T23:12:06.69Z</time>
      </trkpt>
      <trkpt lat="45.03432" lon="6.11896">
        <ele>1295.2</ele>
        <time>2021-07-12T23:12:23.69Z</time>
      </trkpt>
      <trkpt lat="45.03428" lon="6.11916">
        <ele>1295.2</ele>
        <time>2021-07-12T23:12:40.47Z</time>
      </trkpt>
      <trkpt lat="45.03427" lon="6.11921">
        <ele>1295</ele>
        <time>2021-07-12T23:12:44.67Z</time>
      </trkpt>
      <trkpt lat="45.03412" lon="6.11976">
        <ele>1295.5</ele>
        <time>2021-07-12T23:13:32.28Z</time>
      </trkpt>
      <trkpt lat="45.03395" lon="6.12046">
        <ele>1295.4</ele>
        <time>2021-07-12T23:14:32.06Z</time>
      </trkpt>
      <trkpt lat="45.03379" lon="6.12114">
        <ele>1295</ele>
        <time>2021-07-12T23:15:29.95Z</time>
      </trkpt>
      <trkpt lat="45.03365" lon="6.12164">
        <ele>1296.4</ele>
        <time>2021-07-12T23:16:13.38Z</time>
      </trkpt>
      <trkpt lat="45.0336" lon="6.12188">
        <ele>1296.4</ele>
        <time>2021-07-12T23:16:33.59Z</time>
      </trkpt>
      <trkpt lat="45.03355" lon="6.12214">
        <ele>1296.1</ele>
        <time>2021-07-12T23:16:55.36Z</time>
      </trkpt>
      <trkpt lat="45.03353" lon="6.12226">
        <ele>1295.9</ele>
        <time>2021-07-12T23:17:05.31Z</time>
      </trkpt>
      <trkpt lat="45.03347" lon="6.12231">
        <ele>1297.6</ele>
        <time>2021-07-12T23:17:13.27Z</time>
      </trkpt>
      <trkpt lat="45.03345" lon="6.12259">
        <ele>1295.5</ele>
        <time>2021-07-12T23:17:36Z</time>
      </trkpt>
      <trkpt lat="45.03341" lon="6.12288">
        <ele>1292.7</ele>
        <time>2021-07-12T23:17:59.86Z</time>
      </trkpt>
      <trkpt lat="45.03333" lon="6.12323">
        <ele>1290.6</ele>
        <time>2021-07-12T23:18:29.57Z</time>
      </trkpt>
      <trkpt lat="45.03326" lon="6.1235">
        <ele>1287.7</ele>
        <time>2021-07-12T23:18:52.80Z</time>
      </trkpt>
      <trkpt lat="45.0332" lon="6.12368">
        <ele>1285.4</ele>
        <time>2021-07-12T23:19:08.88Z</time>
      </trkpt>
      <trkpt lat="45.0331" lon="6.12385">
        <ele>1284.2</ele>
        <time>2021-07-12T23:19:26.74Z</time>
      </trkpt>
      <trkpt lat="45.03299" lon="6.12396">
        <ele>1284.6</ele>
        <time>2021-07-12T23:19:42.13Z</time>
      </trkpt>
      <trkpt lat="45.0329" lon="6.12401">
        <ele>1285.8</ele>
        <time>2021-07-12T23:19:53.18Z</time>
      </trkpt>
      <trkpt lat="45.03275" lon="6.12409">
        <ele>1287.7</ele>
        <time>2021-07-12T23:20:11.50Z</time>
      </trkpt>
      <trkpt lat="45.03241" lon="6.1242">
        <ele>1293.6</ele>
        <time>2021-07-12T23:20:51.36Z</time>
      </trkpt>
      <trkpt lat="45.03215" lon="6.1243">
        <ele>1298.4</ele>
        <time>2021-07-12T23:21:22.16Z</time>
      </trkpt>
      <trkpt lat="45.03203" lon="6.12438">
        <ele>1300</ele>
        <time>2021-07-12T23:21:37.32Z</time>
      </trkpt>
      <trkpt lat="45.03193" lon="6.12454">
        <ele>1299.5</ele>
        <time>2021-07-12T23:21:54.57Z</time>
      </trkpt>
      <trkpt lat="45.03189" lon="6.12465">
        <ele>1298.4</ele>
        <time>2021-07-12T23:22:04.56Z</time>
      </trkpt>
      <trkpt lat="45.03188" lon="6.12481">
        <ele>1295.4</ele>
        <time>2021-07-12T23:22:17.53Z</time>
      </trkpt>
      <trkpt lat="45.03189" lon="6.125">
        <ele>1291.3</ele>
        <time>2021-07-12T23:22:32.92Z</time>
      </trkpt>
      <trkpt lat="45.03193" lon="6.12516">
        <ele>1293.2</ele>
        <time>2021-07-12T23:22:46.63Z</time>
      </trkpt>
      <trkpt lat="45.03199" lon="6.12531">
        <ele>1293.9</ele>
        <time>2021-07-12T23:23:00.55Z</time>
      </trkpt>
      <trkpt lat="45.03202" lon="6.12539">
        <ele>1294.2</ele>
        <time>2021-07-12T23:23:07.86Z</time>
      </trkpt>
      <trkpt lat="45.03224" lon="6.12555">
        <ele>1288.1</ele>
        <time>2021-07-12T23:23:36.13Z</time>
      </trkpt>
      <trkpt lat="45.03247" lon="6.12592">
        <ele>1282.9</ele>
        <time>2021-07-12T23:24:15.93Z</time>
      </trkpt>
      <trkpt lat="45.03264" lon="6.12618">
        <ele>1282.1</ele>
        <time>2021-07-12T23:24:44.54Z</time>
      </trkpt>
      <trkpt lat="45.0327" lon="6.12628">
        <ele>1282.2</ele>
        <time>2021-07-12T23:24:55.13Z</time>
      </trkpt>
      <trkpt lat="45.03279" lon="6.12633">
        <ele>1280.6</ele>
        <time>2021-07-12T23:25:06.18Z</time>
      </trkpt>
      <trkpt lat="45.03306" lon="6.12645">
        <ele>1275.4</ele>
        <time>2021-07-12T23:25:38.53Z</time>
      </trkpt>
      <trkpt lat="45.03319" lon="6.12652">
        <ele>1273.4</ele>
        <time>2021-07-12T23:25:54.42Z</time>
      </trkpt>
      <trkpt lat="45.03327" lon="6.12657">
        <ele>1272.4</ele>
        <time>2021-07-12T23:26:04.42Z</time>
      </trkpt>
      <trkpt lat="45.03343" lon="6.12674">
        <ele>1272.9</ele>
        <time>2021-07-12T23:26:27.29Z</time>
      </trkpt>
      <trkpt lat="45.03349" lon="6.12679">
        <ele>1273</ele>
        <time>2021-07-12T23:26:35.24Z</time>
      </trkpt>
      <trkpt lat="45.03362" lon="6.12691">
        <ele>1273.5</ele>
        <time>2021-07-12T23:26:52.98Z</time>
      </trkpt>
      <trkpt lat="45.0337" lon="6.12698">
        <ele>1273.7</ele>
        <time>2021-07-12T23:27:03.73Z</time>
      </trkpt>
      <trkpt lat="45.03386" lon="6.12707">
        <ele>1273</ele>
        <time>2021-07-12T23:27:23.41Z</time>
      </trkpt>
      <trkpt lat="45.03402" lon="6.12719">
        <ele>1273.1</ele>
        <time>2021-07-12T23:27:44.11Z</time>
      </trkpt>
      <trkpt lat="45.0341" lon="6.12725">
        <ele>1273.1</ele>
        <time>2021-07-12T23:27:54.45Z</time>
      </trkpt>
      <trkpt lat="45.03418" lon="6.12732">
        <ele>1273.5</ele>
        <time>2021-07-12T23:28:05.20Z</time>
      </trkpt>
      <trkpt lat="45.03434" lon="6.12758">
        <ele>1275.8</ele>
        <time>2021-07-12T23:28:33.05Z</time>
      </trkpt>
      <trkpt lat="45.03441" lon="6.12766">
        <ele>1275.4</ele>
        <time>2021-07-12T23:28:43.33Z</time>
      </trkpt>
      <trkpt lat="45.03465" lon="6.12804">
        <ele>1274.7</ele>
        <time>2021-07-12T23:29:24.49Z</time>
      </trkpt>
      <trkpt lat="45.03488" lon="6.12839">
        <ele>1273.4</ele>
        <time>2021-07-12T23:30:03.09Z</time>
      </trkpt>
      <trkpt lat="45.03488" lon="6.12839">
        <ele>1273.4</ele>
        <time>2021-07-12T23:30:04.12Z</time>
      </trkpt>
      <trkpt lat="45.03512" lon="6.1287">
        <ele>1271</ele>
        <time>2021-07-12T23:30:41.26Z</time>
      </trkpt>
      <trkpt lat="45.03538" lon="6.12902">
        <ele>1270.9</ele>
        <time>2021-07-12T23:31:20.64Z</time>
      </trkpt>
      <trkpt lat="45.0355" lon="6.1292">
        <ele>1271.9</ele>
        <time>2021-07-12T23:31:40.62Z</time>
      </trkpt>
      <trkpt lat="45.03552" lon="6.12923">
        <ele>1272.1</ele>
        <time>2021-07-12T23:31:43.95Z</time>
      </trkpt>
      <trkpt lat="45.0356" lon="6.12936">
        <ele>1272.8</ele>
        <time>2021-07-12T23:31:57.88Z</time>
      </trkpt>
      <trkpt lat="45.03564" lon="6.12949">
        <ele>1273.7</ele>
        <time>2021-07-12T23:32:09.33Z</time>
      </trkpt>
      <trkpt lat="45.03573" lon="6.12975">
        <ele>1275.1</ele>
        <time>2021-07-12T23:32:32.71Z</time>
      </trkpt>
      <trkpt lat="45.0358" lon="6.12991">
        <ele>1275.7</ele>
        <time>2021-07-12T23:32:47.91Z</time>
      </trkpt>
      <trkpt lat="45.03584" lon="6.12996">
        <ele>1275.7</ele>
        <time>2021-07-12T23:32:54.01Z</time>
      </trkpt>
      <trkpt lat="45.03593" lon="6.13005">
        <ele>1276</ele>
        <time>2021-07-12T23:33:06.60Z</time>
      </trkpt>
      <trkpt lat="45.03602" lon="6.13017">
        <ele>1276.1</ele>
        <time>2021-07-12T23:33:20.73Z</time>
      </trkpt>
      <trkpt lat="45.03607" lon="6.13026">
        <ele>1276.3</ele>
        <time>2021-07-12T23:33:29.98Z</time>
      </trkpt>
      <trkpt lat="45.03609" lon="6.13031">
        <ele>1276.3</ele>
        <time>2021-07-12T23:33:34.62Z</time>
      </trkpt>
      <trkpt lat="45.03609" lon="6.13039">
        <ele>1276.5</ele>
        <time>2021-07-12T23:33:41.08Z</time>
      </trkpt>
      <trkpt lat="45.03613" lon="6.1306">
        <ele>1276.8</ele>
        <time>2021-07-12T23:33:58.65Z</time>
      </trkpt>
      <trkpt lat="45.03619" lon="6.13098">
        <ele>1277.3</ele>
        <time>2021-07-12T23:34:30.09Z</time>
      </trkpt>
      <trkpt lat="45.03625" lon="6.13129">
        <ele>1277</ele>
        <time>2021-07-12T23:34:56.05Z</time>
      </trkpt>
      <trkpt lat="45.03628" lon="6.1314">
        <ele>1276.6</ele>
        <time>2021-07-12T23:35:05.57Z</time>
      </trkpt>
      <trkpt lat="45.03639" lon="6.13175">
        <ele>1274</ele>
        <time>2021-07-12T23:35:36.51Z</time>
      </trkpt>
      <trkpt lat="45.03642" lon="6.13184">
        <ele>1273</ele>
        <time>2021-07-12T23:35:44.54Z</time>
      </trkpt>
      <trkpt lat="45.03646" lon="6.13194">
        <ele>1271.6</ele>
        <time>2021-07-12T23:35:53.82Z</time>
      </trkpt>
      <trkpt lat="45.0365" lon="6.13203">
        <ele>1269.9</ele>
        <time>2021-07-12T23:36:02.41Z</time>
      </trkpt>
      <trkpt lat="45.03652" lon="6.13206">
        <ele>1269.1</ele>
        <time>2021-07-12T23:36:05.74Z</time>
      </trkpt>
      <trkpt lat="45.03654" lon="6.1321">
        <ele>1268.3</ele>
        <time>2021-07-12T23:36:09.70Z</time>
      </trkpt>
      <trkpt lat="45.03665" lon="6.13218">
        <ele>1264</ele>
        <time>2021-07-12T23:36:23.83Z</time>
      </trkpt>
      <trkpt lat="45.03675" lon="6.13222">
        <ele>1262.1</ele>
        <time>2021-07-12T23:36:35.71Z</time>
      </trkpt>
      <trkpt lat="45.03679" lon="6.13223">
        <ele>1261.5</ele>
        <time>2021-07-12T23:36:40.35Z</time>
      </trkpt>
      <trkpt lat="45.03703" lon="6.13213">
        <ele>1260.6</ele>
        <time>2021-07-12T23:37:08.94Z</time>
      </trkpt>
      <trkpt lat="45.03709" lon="6.1321">
        <ele>1260.6</ele>
        <time>2021-07-12T23:37:16.22Z</time>
      </trkpt>
      <trkpt lat="45.03716" lon="6.13208">
        <ele>1260.4</ele>
        <time>2021-07-12T23:37:24.38Z</time>
      </trkpt>
      <trkpt lat="45.03725" lon="6.13208">
        <ele>1259.7</ele>
        <time>2021-07-12T23:37:34.66Z</time>
      </trkpt>
      <trkpt lat="45.0374" lon="6.13205">
        <ele>1259.3</ele>
        <time>2021-07-12T23:37:51.98Z</time>
      </trkpt>
      <trkpt lat="45.03792" lon="6.13198">
        <ele>1254.7</ele>
        <time>2021-07-12T23:38:51.67Z</time>
      </trkpt>
      <trkpt lat="45.03808" lon="6.13197">
        <ele>1252.7</ele>
        <time>2021-07-12T23:39:09.98Z</time>
      </trkpt>
      <trkpt lat="45.03823" lon="6.13198">
        <ele>1250.3</ele>
        <time>2021-07-12T23:39:27.14Z</time>
      </trkpt>
      <trkpt lat="45.03841" lon="6.132">
        <ele>1248.2</ele>
        <time>2021-07-12T23:39:47.77Z</time>
      </trkpt>
      <trkpt lat="45.03866" lon="6.13204">
        <ele>1247</ele>
        <time>2021-07-12T23:40:16.53Z</time>
      </trkpt>
      <trkpt lat="45.03877" lon="6.13207">
        <ele>1246</ele>
        <time>2021-07-12T23:40:29.33Z</time>
      </trkpt>
      <trkpt lat="45.03935" lon="6.13266">
        <ele>1222.7</ele>
        <time>2021-07-12T23:41:50.96Z</time>
      </trkpt>
      <trkpt lat="45.03966" lon="6.13275">
        <ele>1218.3</ele>
        <time>2021-07-12T23:42:27.13Z</time>
      </trkpt>
      <trkpt lat="45.04034" lon="6.13285">
        <ele>1212.2</ele>
        <time>2021-07-12T23:43:45.26Z</time>
      </trkpt>
      <trkpt lat="45.04073" lon="6.13299">
        <ele>1204.9</ele>
        <time>2021-07-12T23:44:31.25Z</time>
      </trkpt>
      <trkpt lat="45.04095" lon="6.13313">
        <ele>1198</ele>
        <time>2021-07-12T23:44:58.81Z</time>
      </trkpt>
      <trkpt lat="45.041" lon="6.13317">
        <ele>1196.1</ele>
        <time>2021-07-12T23:45:05.38Z</time>
      </trkpt>
      <trkpt lat="45.04125" lon="6.13323">
        <ele>1192.8</ele>
        <time>2021-07-12T23:45:34.36Z</time>
      </trkpt>
      <trkpt lat="45.04147" lon="6.13334">
        <ele>1188.2</ele>
        <time>2021-07-12T23:46:01.02Z</time>
      </trkpt>
      <trkpt lat="45.04164" lon="6.1333">
        <ele>1189.2</ele>
        <time>2021-07-12T23:46:20.72Z</time>
      </trkpt>
      <trkpt lat="45.04157" lon="6.13336">
        <ele>1187.2</ele>
        <time>2021-07-12T23:46:30.07Z</time>
      </trkpt>
      <trkpt lat="45.0415" lon="6.13346">
        <ele>1183.6</ele>
        <time>2021-07-12T23:46:41.44Z</time>
      </trkpt>
      <trkpt lat="45.04151" lon="6.13353">
        <ele>1180.9</ele>
        <time>2021-07-12T23:46:47.21Z</time>
      </trkpt>
      <trkpt lat="45.04162" lon="6.13354">
        <ele>1180.2</ele>
        <time>2021-07-12T23:46:59.80Z</time>
      </trkpt>
      <trkpt lat="45.04173" lon="6.13379">
        <ele>1170.5</ele>
        <time>2021-07-12T23:47:23.59Z</time>
      </trkpt>
      <trkpt lat="45.0417" lon="6.13387">
        <ele>1167.4</ele>
        <time>2021-07-12T23:47:30.90Z</time>
      </trkpt>
      <trkpt lat="45.04157" lon="6.13389">
        <ele>1166.9</ele>
        <time>2021-07-12T23:47:45.84Z</time>
      </trkpt>
      <trkpt lat="45.04145" lon="6.1341">
        <ele>1159.3</ele>
        <time>2021-07-12T23:48:07.65Z</time>
      </trkpt>
      <trkpt lat="45.04157" lon="6.13422">
        <ele>1154.1</ele>
        <time>2021-07-12T23:48:24.45Z</time>
      </trkpt>
      <trkpt lat="45.04167" lon="6.13424">
        <ele>1152.9</ele>
        <time>2021-07-12T23:48:35.99Z</time>
      </trkpt>
      <trkpt lat="45.04176" lon="6.13423">
        <ele>1153.3</ele>
        <time>2021-07-12T23:48:46.31Z</time>
      </trkpt>
      <trkpt lat="45.04185" lon="6.13428">
        <ele>1151.3</ele>
        <time>2021-07-12T23:48:57.36Z</time>
      </trkpt>
      <trkpt lat="45.04204" lon="6.13441">
        <ele>1145.9</ele>
        <time>2021-07-12T23:49:21.47Z</time>
      </trkpt>
      <trkpt lat="45.04206" lon="6.1345">
        <ele>1142.2</ele>
        <time>2021-07-12T23:49:29.09Z</time>
      </trkpt>
      <trkpt lat="45.04201" lon="6.13454">
        <ele>1140.5</ele>
        <time>2021-07-12T23:49:35.66Z</time>
      </trkpt>
      <trkpt lat="45.04195" lon="6.13456">
        <ele>1139.6</ele>
        <time>2021-07-12T23:49:42.70Z</time>
      </trkpt>
      <trkpt lat="45.04191" lon="6.13455">
        <ele>1140</ele>
        <time>2021-07-12T23:49:47.34Z</time>
      </trkpt>
      <trkpt lat="45.04182" lon="6.13452">
        <ele>1141.2</ele>
        <time>2021-07-12T23:49:57.91Z</time>
      </trkpt>
      <trkpt lat="45.04184" lon="6.13461">
        <ele>1137.5</ele>
        <time>2021-07-12T23:50:05.53Z</time>
      </trkpt>
      <trkpt lat="45.04191" lon="6.13468">
        <ele>1134.6</ele>
        <time>2021-07-12T23:50:15.33Z</time>
      </trkpt>
      <trkpt lat="45.04204" lon="6.13479">
        <ele>1130.2</ele>
        <time>2021-07-12T23:50:32.64Z</time>
      </trkpt>
      <trkpt lat="45.04211" lon="6.13481">
        <ele>1129.4</ele>
        <time>2021-07-12T23:50:40.80Z</time>
      </trkpt>
      <trkpt lat="45.0422" lon="6.13486">
        <ele>1127.4</ele>
        <time>2021-07-12T23:50:51.85Z</time>
      </trkpt>
      <trkpt lat="45.04224" lon="6.13492">
        <ele>1125</ele>
        <time>2021-07-12T23:50:58.51Z</time>
      </trkpt>
      <trkpt lat="45.04219" lon="6.1351">
        <ele>1117.4</ele>
        <time>2021-07-12T23:51:14.13Z</time>
      </trkpt>
      <trkpt lat="45.04195" lon="6.13516">
        <ele>1114.9</ele>
        <time>2021-07-12T23:51:41.98Z</time>
      </trkpt>
      <trkpt lat="45.04178" lon="6.13518">
        <ele>1114.1</ele>
        <time>2021-07-12T23:52:01.48Z</time>
      </trkpt>
      <trkpt lat="45.04165" lon="6.13517">
        <ele>1114.5</ele>
        <time>2021-07-12T23:52:16.35Z</time>
      </trkpt>
      <trkpt lat="45.04161" lon="6.13526">
        <ele>1111.1</ele>
        <time>2021-07-12T23:52:24.94Z</time>
      </trkpt>
      <trkpt lat="45.04158" lon="6.13537">
        <ele>1106.9</ele>
        <time>2021-07-12T23:52:34.46Z</time>
      </trkpt>
      <trkpt lat="45.04163" lon="6.13559">
        <ele>1098.4</ele>
        <time>2021-07-12T23:52:53.12Z</time>
      </trkpt>
      <trkpt lat="45.04172" lon="6.13566">
        <ele>1095.5</ele>
        <time>2021-07-12T23:53:04.86Z</time>
      </trkpt>
      <trkpt lat="45.0418" lon="6.13566">
        <ele>1095.2</ele>
        <time>2021-07-12T23:53:14Z</time>
      </trkpt>
      <trkpt lat="45.04185" lon="6.13564">
        <ele>1095.8</ele>
        <time>2021-07-12T23:53:19.94Z</time>
      </trkpt>
      <trkpt lat="45.04193" lon="6.13568">
        <ele>1093.9</ele>
        <time>2021-07-12T23:53:29.64Z</time>
      </trkpt>
      <trkpt lat="45.04201" lon="6.13574">
        <ele>1091.2</ele>
        <time>2021-07-12T23:53:39.99Z</time>
      </trkpt>
      <trkpt lat="45.04195" lon="6.13579">
        <ele>1089.4</ele>
        <time>2021-07-12T23:53:47.94Z</time>
      </trkpt>
      <trkpt lat="45.04179" lon="6.13585">
        <ele>1087.8</ele>
        <time>2021-07-12T23:54:06.86Z</time>
      </trkpt>
      <trkpt lat="45.04174" lon="6.13599">
        <ele>1083.2</ele>
        <time>2021-07-12T23:54:19.53Z</time>
      </trkpt>
      <trkpt lat="45.04187" lon="6.13598">
        <ele>1082.7</ele>
        <time>2021-07-12T23:54:34.41Z</time>
      </trkpt>
      <trkpt lat="45.04199" lon="6.136">
        <ele>1081.1</ele>
        <time>2021-07-12T23:54:48.22Z</time>
      </trkpt>
      <trkpt lat="45.04209" lon="6.13603">
        <ele>1079.2</ele>
        <time>2021-07-12T23:54:59.90Z</time>
      </trkpt>
      <trkpt lat="45.04214" lon="6.13603">
        <ele>1078.8</ele>
        <time>2021-07-12T23:55:05.61Z</time>
      </trkpt>
      <trkpt lat="45.04224" lon="6.13605">
        <ele>1077.2</ele>
        <time>2021-07-12T23:55:17.15Z</time>
      </trkpt>
      <trkpt lat="45.04232" lon="6.13605">
        <ele>1076.5</ele>
        <time>2021-07-12T23:55:26.30Z</time>
      </trkpt>
      <trkpt lat="45.04245" lon="6.13604">
        <ele>1076</ele>
        <time>2021-07-12T23:55:41.18Z</time>
      </trkpt>
      <trkpt lat="45.04301" lon="6.136">
        <ele>1068.6</ele>
        <time>2021-07-12T23:56:45.26Z</time>
      </trkpt>
      <trkpt lat="45.04315" lon="6.13598">
        <ele>1066.9</ele>
        <time>2021-07-12T23:57:01.34Z</time>
      </trkpt>
      <trkpt lat="45.0433" lon="6.13593">
        <ele>1066.1</ele>
        <time>2021-07-12T23:57:18.95Z</time>
      </trkpt>
      <trkpt lat="45.04344" lon="6.13584">
        <ele>1067.6</ele>
        <time>2021-07-12T23:57:36.52Z</time>
      </trkpt>
      <trkpt lat="45.04359" lon="6.13575">
        <ele>1070.7</ele>
        <time>2021-07-12T23:57:55.14Z</time>
      </trkpt>
      <trkpt lat="45.04371" lon="6.1357">
        <ele>1072.1</ele>
        <time>2021-07-12T23:58:09.44Z</time>
      </trkpt>
      <trkpt lat="45.04389" lon="6.13566">
        <ele>1072.2</ele>
        <time>2021-07-12T23:58:30.26Z</time>
      </trkpt>
      <trkpt lat="45.04395" lon="6.1357">
        <ele>1069.4</ele>
        <time>2021-07-12T23:58:37.84Z</time>
      </trkpt>
      <trkpt lat="45.044" lon="6.13572">
        <ele>1067.8</ele>
        <time>2021-07-12T23:58:43.78Z</time>
      </trkpt>
      <trkpt lat="45.0441" lon="6.13572">
        <ele>1066.7</ele>
        <time>2021-07-12T23:58:55.21Z</time>
      </trkpt>
      <trkpt lat="45.04421" lon="6.13575">
        <ele>1063.9</ele>
        <time>2021-07-12T23:59:08.01Z</time>
      </trkpt>
      <trkpt lat="45.0443" lon="6.13579">
        <ele>1060.9</ele>
        <time>2021-07-12T23:59:18.79Z</time>
      </trkpt>
      <trkpt lat="45.04437" lon="6.13585">
        <ele>1057.4</ele>
        <time>2021-07-12T23:59:28.15Z</time>
      </trkpt>
      <trkpt lat="45.04443" lon="6.13582">
        <ele>1058.1</ele>
        <time>2021-07-12T23:59:35.42Z</time>
      </trkpt>
      <trkpt lat="45.04448" lon="6.13587">
        <ele>1055.7</ele>
        <time>2021-07-12T23:59:42.42Z</time>
      </trkpt>
      <trkpt lat="45.04465" lon="6.13605">
        <ele>1048.3</ele>
        <time>2021-07-13T00:00:06.68Z</time>
      </trkpt>
      <trkpt lat="45.04476" lon="6.13621">
        <ele>1042.6</ele>
        <time>2021-07-13T00:00:24.71Z</time>
      </trkpt>
      <trkpt lat="45.04485" lon="6.13636">
        <ele>1037.8</ele>
        <time>2021-07-13T00:00:40.60Z</time>
      </trkpt>
      <trkpt lat="45.04488" lon="6.13642">
        <ele>1035.9</ele>
        <time>2021-07-13T00:00:46.53Z</time>
      </trkpt>
      <trkpt lat="45.04491" lon="6.13644">
        <ele>1035.3</ele>
        <time>2021-07-13T00:00:50.32Z</time>
      </trkpt>
      <trkpt lat="45.04495" lon="6.13647">
        <ele>1034.4</ele>
        <time>2021-07-13T00:00:55.50Z</time>
      </trkpt>
      <trkpt lat="45.04507" lon="6.13648">
        <ele>1032.2</ele>
        <time>2021-07-13T00:01:09.23Z</time>
      </trkpt>
      <trkpt lat="45.04507" lon="6.13659">
        <ele>1029.3</ele>
        <time>2021-07-13T00:01:18.12Z</time>
      </trkpt>
      <trkpt lat="45.04507" lon="6.13673">
        <ele>1026.3</ele>
        <time>2021-07-13T00:01:29.42Z</time>
      </trkpt>
      <trkpt lat="45.04508" lon="6.13687">
        <ele>1024.1</ele>
        <time>2021-07-13T00:01:40.78Z</time>
      </trkpt>
      <trkpt lat="45.0451" lon="6.13699">
        <ele>1021.9</ele>
        <time>2021-07-13T00:01:50.74Z</time>
      </trkpt>
      <trkpt lat="45.04515" lon="6.13714">
        <ele>1018.6</ele>
        <time>2021-07-13T00:02:04.13Z</time>
      </trkpt>
      <trkpt lat="45.0452" lon="6.13725">
        <ele>1015.9</ele>
        <time>2021-07-13T00:02:14.69Z</time>
      </trkpt>
      <trkpt lat="45.04527" lon="6.13738">
        <ele>1012.5</ele>
        <time>2021-07-13T00:02:27.89Z</time>
      </trkpt>
      <trkpt lat="45.04532" lon="6.13747">
        <ele>1010.1</ele>
        <time>2021-07-13T00:02:37.14Z</time>
      </trkpt>
      <trkpt lat="45.04537" lon="6.13753">
        <ele>1008.4</ele>
        <time>2021-07-13T00:02:44.63Z</time>
      </trkpt>
      <trkpt lat="45.0454" lon="6.13755">
        <ele>1007.6</ele>
        <time>2021-07-13T00:02:48.42Z</time>
      </trkpt>
      <trkpt lat="45.0455" lon="6.13766">
        <ele>1005.5</ele>
        <time>2021-07-13T00:03:02.89Z</time>
      </trkpt>
      <trkpt lat="45.04557" lon="6.1377">
        <ele>1004.4</ele>
        <time>2021-07-13T00:03:11.52Z</time>
      </trkpt>
      <trkpt lat="45.04561" lon="6.13773">
        <ele>1004</ele>
        <time>2021-07-13T00:03:16.69Z</time>
      </trkpt>
      <trkpt lat="45.04582" lon="6.13782">
        <ele>1002.3</ele>
        <time>2021-07-13T00:03:41.77Z</time>
      </trkpt>
      <trkpt lat="45.04638" lon="6.13793">
        <ele>1004.9</ele>
        <time>2021-07-13T00:04:46.38Z</time>
      </trkpt>
      <trkpt lat="45.04687" lon="6.13803">
        <ele>1016.7</ele>
        <time>2021-07-13T00:05:42.96Z</time>
      </trkpt>
      <trkpt lat="45.04693" lon="6.13804">
        <ele>1020.1</ele>
        <time>2021-07-13T00:05:49.87Z</time>
      </trkpt>
      <trkpt lat="45.04697" lon="6.13809">
        <ele>1022.4</ele>
        <time>2021-07-13T00:05:55.97Z</time>
      </trkpt>
      <trkpt lat="45.04701" lon="6.13817">
        <ele>1024.8</ele>
        <time>2021-07-13T00:06:03.88Z</time>
      </trkpt>
      <trkpt lat="45.04705" lon="6.13832">
        <ele>1027.5</ele>
        <time>2021-07-13T00:06:16.83Z</time>
      </trkpt>
      <trkpt lat="45.04708" lon="6.13831">
        <ele>1029.2</ele>
        <time>2021-07-13T00:06:20.35Z</time>
      </trkpt>
      <trkpt lat="45.04712" lon="6.13828">
        <ele>1031.5</ele>
        <time>2021-07-13T00:06:25.52Z</time>
      </trkpt>
      <trkpt lat="45.04716" lon="6.13826">
        <ele>1033.7</ele>
        <time>2021-07-13T00:06:30.37Z</time>
      </trkpt>
      <trkpt lat="45.0472" lon="6.13821">
        <ele>1035.8</ele>
        <time>2021-07-13T00:06:36.47Z</time>
      </trkpt>
      <trkpt lat="45.04724" lon="6.13815">
        <ele>1037.9</ele>
        <time>2021-07-13T00:06:43.13Z</time>
      </trkpt>
      <trkpt lat="45.04728" lon="6.13811">
        <ele>1040</ele>
        <time>2021-07-13T00:06:48.73Z</time>
      </trkpt>
      <trkpt lat="45.04731" lon="6.13805">
        <ele>1041.3</ele>
        <time>2021-07-13T00:06:54.66Z</time>
      </trkpt>
      <trkpt lat="45.04734" lon="6.13799">
        <ele>1042.7</ele>
        <time>2021-07-13T00:07:00.60Z</time>
      </trkpt>
      <trkpt lat="45.04736" lon="6.13806">
        <ele>1044.2</ele>
        <time>2021-07-13T00:07:06.69Z</time>
      </trkpt>
      <trkpt lat="45.04737" lon="6.13814">
        <ele>1045.2</ele>
        <time>2021-07-13T00:07:13.25Z</time>
      </trkpt>
      <trkpt lat="45.04739" lon="6.1382">
        <ele>1046.7</ele>
        <time>2021-07-13T00:07:18.61Z</time>
      </trkpt>
      <trkpt lat="45.0474" lon="6.13829">
        <ele>1047.9</ele>
        <time>2021-07-13T00:07:25.97Z</time>
      </trkpt>
      <trkpt lat="45.04739" lon="6.13835">
        <ele>1047.7</ele>
        <time>2021-07-13T00:07:30.94Z</time>
      </trkpt>
      <trkpt lat="45.04738" lon="6.13841">
        <ele>1047.5</ele>
        <time>2021-07-13T00:07:35.92Z</time>
      </trkpt>
      <trkpt lat="45.04737" lon="6.13848">
        <ele>1047.4</ele>
        <time>2021-07-13T00:07:41.69Z</time>
      </trkpt>
      <trkpt lat="45.04737" lon="6.13855">
        <ele>1047.9</ele>
        <time>2021-07-13T00:07:47.34Z</time>
      </trkpt>
      <trkpt lat="45.04737" lon="6.13862">
        <ele>1048.4</ele>
        <time>2021-07-13T00:07:52.99Z</time>
      </trkpt>
      <trkpt lat="45.04739" lon="6.13869">
        <ele>1050.2</ele>
        <time>2021-07-13T00:07:59.09Z</time>
      </trkpt>
      <trkpt lat="45.04741" lon="6.13876">
        <ele>1052</ele>
        <time>2021-07-13T00:08:05.19Z</time>
      </trkpt>
      <trkpt lat="45.04744" lon="6.13881">
        <ele>1054.5</ele>
        <time>2021-07-13T00:08:10.48Z</time>
      </trkpt>
      <trkpt lat="45.04751" lon="6.13884">
        <ele>1059.5</ele>
        <time>2021-07-13T00:08:18.84Z</time>
      </trkpt>
      <trkpt lat="45.04747" lon="6.1387">
        <ele>1055.5</ele>
        <time>2021-07-13T00:08:31.04Z</time>
      </trkpt>
      <trkpt lat="45.04748" lon="6.13862">
        <ele>1055.5</ele>
        <time>2021-07-13T00:08:37.60Z</time>
      </trkpt>
      <trkpt lat="45.0475" lon="6.13856">
        <ele>1056.2</ele>
        <time>2021-07-13T00:08:42.95Z</time>
      </trkpt>
      <trkpt lat="45.04753" lon="6.13853">
        <ele>1057.7</ele>
        <time>2021-07-13T00:08:47.15Z</time>
      </trkpt>
      <trkpt lat="45.04758" lon="6.13853">
        <ele>1060.8</ele>
        <time>2021-07-13T00:08:52.87Z</time>
      </trkpt>
      <trkpt lat="45.04764" lon="6.13858">
        <ele>1065</ele>
        <time>2021-07-13T00:09:00.82Z</time>
      </trkpt>
      <trkpt lat="45.04765" lon="6.13869">
        <ele>1066.8</ele>
        <time>2021-07-13T00:09:09.78Z</time>
      </trkpt>
      <trkpt lat="45.04765" lon="6.13881">
        <ele>1068</ele>
        <time>2021-07-13T00:09:19.47Z</time>
      </trkpt>
      <trkpt lat="45.04766" lon="6.13889">
        <ele>1069.4</ele>
        <time>2021-07-13T00:09:26.03Z</time>
      </trkpt>
      <trkpt lat="45.04772" lon="6.13903">
        <ele>1074.6</ele>
        <time>2021-07-13T00:09:39.25Z</time>
      </trkpt>
      <trkpt lat="45.04779" lon="6.13918">
        <ele>1080.4</ele>
        <time>2021-07-13T00:09:53.76Z</time>
      </trkpt>
      <trkpt lat="45.04786" lon="6.13934">
        <ele>1084</ele>
        <time>2021-07-13T00:10:08.96Z</time>
      </trkpt>
      <trkpt lat="45.04789" lon="6.13949">
        <ele>1085.1</ele>
        <time>2021-07-13T00:10:21.55Z</time>
      </trkpt>
      <trkpt lat="45.04797" lon="6.13994">
        <ele>1087.5</ele>
        <time>2021-07-13T00:10:59.01Z</time>
      </trkpt>
      <trkpt lat="45.04799" lon="6.13991">
        <ele>1088.9</ele>
        <time>2021-07-13T00:11:02.35Z</time>
      </trkpt>
      <trkpt lat="45.048" lon="6.13984">
        <ele>1089.9</ele>
        <time>2021-07-13T00:11:08.11Z</time>
      </trkpt>
      <trkpt lat="45.048" lon="6.13962">
        <ele>1091.2</ele>
        <time>2021-07-13T00:11:25.88Z</time>
      </trkpt>
      <trkpt lat="45.04798" lon="6.13957">
        <ele>1090.2</ele>
        <time>2021-07-13T00:11:30.51Z</time>
      </trkpt>
      <trkpt lat="45.04797" lon="6.13949">
        <ele>1090.1</ele>
        <time>2021-07-13T00:11:37.07Z</time>
      </trkpt>
      <trkpt lat="45.04797" lon="6.1394">
        <ele>1090.6</ele>
        <time>2021-07-13T00:11:44.34Z</time>
      </trkpt>
      <trkpt lat="45.04798" lon="6.13935">
        <ele>1091.5</ele>
        <time>2021-07-13T00:11:48.54Z</time>
      </trkpt>
      <trkpt lat="45.048" lon="6.13929">
        <ele>1093.1</ele>
        <time>2021-07-13T00:11:53.89Z</time>
      </trkpt>
      <trkpt lat="45.04801" lon="6.13923">
        <ele>1094.1</ele>
        <time>2021-07-13T00:11:58.87Z</time>
      </trkpt>
      <trkpt lat="45.04802" lon="6.13914">
        <ele>1094.8</ele>
        <time>2021-07-13T00:12:06.23Z</time>
      </trkpt>
      <trkpt lat="45.04802" lon="6.13907">
        <ele>1094</ele>
        <time>2021-07-13T00:12:11.88Z</time>
      </trkpt>
      <trkpt lat="45.04807" lon="6.13906">
        <ele>1097.1</ele>
        <time>2021-07-13T00:12:17.65Z</time>
      </trkpt>
      <trkpt lat="45.04809" lon="6.13912">
        <ele>1099</ele>
        <time>2021-07-13T00:12:23.01Z</time>
      </trkpt>
      <trkpt lat="45.04817" lon="6.13911">
        <ele>1104</ele>
        <time>2021-07-13T00:12:32.19Z</time>
      </trkpt>
      <trkpt lat="45.0482" lon="6.13915">
        <ele>1106.3</ele>
        <time>2021-07-13T00:12:36.90Z</time>
      </trkpt>
      <trkpt lat="45.04824" lon="6.1392">
        <ele>1108.8</ele>
        <time>2021-07-13T00:12:43Z</time>
      </trkpt>
      <trkpt lat="45.04829" lon="6.13924">
        <ele>1111.7</ele>
        <time>2021-07-13T00:12:49.56Z</time>
      </trkpt>
      <trkpt lat="45.04832" lon="6.13926">
        <ele>1113.5</ele>
        <time>2021-07-13T00:12:53.35Z</time>
      </trkpt>
      <trkpt lat="45.04837" lon="6.13926">
        <ele>1115.4</ele>
        <time>2021-07-13T00:12:59.06Z</time>
      </trkpt>
      <trkpt lat="45.04847" lon="6.13927">
        <ele>1118.1</ele>
        <time>2021-07-13T00:13:10.52Z</time>
      </trkpt>
      <trkpt lat="45.04851" lon="6.1393">
        <ele>1119.2</ele>
        <time>2021-07-13T00:13:15.69Z</time>
      </trkpt>
      <trkpt lat="45.04855" lon="6.13936">
        <ele>1120.3</ele>
        <time>2021-07-13T00:13:22.36Z</time>
      </trkpt>
      <trkpt lat="45.04856" lon="6.1394">
        <ele>1120.6</ele>
        <time>2021-07-13T00:13:25.78Z</time>
      </trkpt>
      <trkpt lat="45.04857" lon="6.13949">
        <ele>1121</ele>
        <time>2021-07-13T00:13:33.14Z</time>
      </trkpt>
      <trkpt lat="45.04858" lon="6.13955">
        <ele>1121.3</ele>
        <time>2021-07-13T00:13:38.12Z</time>
      </trkpt>
      <trkpt lat="45.04857" lon="6.13962">
        <ele>1120.9</ele>
        <time>2021-07-13T00:13:43.88Z</time>
      </trkpt>
      <trkpt lat="45.04857" lon="6.13969">
        <ele>1120.9</ele>
        <time>2021-07-13T00:13:49.53Z</time>
      </trkpt>
      <trkpt lat="45.04857" lon="6.13976">
        <ele>1120.9</ele>
        <time>2021-07-13T00:13:55.19Z</time>
      </trkpt>
      <trkpt lat="45.04859" lon="6.13983">
        <ele>1121.8</ele>
        <time>2021-07-13T00:14:01.28Z</time>
      </trkpt>
      <trkpt lat="45.04862" lon="6.13989">
        <ele>1123.3</ele>
        <time>2021-07-13T00:14:07.22Z</time>
      </trkpt>
      <trkpt lat="45.04866" lon="6.13993">
        <ele>1125.3</ele>
        <time>2021-07-13T00:14:12.81Z</time>
      </trkpt>
      <trkpt lat="45.0487" lon="6.13996">
        <ele>1127.3</ele>
        <time>2021-07-13T00:14:17.99Z</time>
      </trkpt>
      <trkpt lat="45.04875" lon="6.13998">
        <ele>1129.9</ele>
        <time>2021-07-13T00:14:23.93Z</time>
      </trkpt>
      <trkpt lat="45.04879" lon="6.14001">
        <ele>1132.1</ele>
        <time>2021-07-13T00:14:29.10Z</time>
      </trkpt>
      <trkpt lat="45.04883" lon="6.14005">
        <ele>1134.5</ele>
        <time>2021-07-13T00:14:34.70Z</time>
      </trkpt>
      <trkpt lat="45.04888" lon="6.14009">
        <ele>1137.4</ele>
        <time>2021-07-13T00:14:41.26Z</time>
      </trkpt>
      <trkpt lat="45.04891" lon="6.14023">
        <ele>1140.3</ele>
        <time>2021-07-13T00:14:53.07Z</time>
      </trkpt>
      <trkpt lat="45.04894" lon="6.14038">
        <ele>1143.5</ele>
        <time>2021-07-13T00:15:05.66Z</time>
      </trkpt>
      <trkpt lat="45.04892" lon="6.14054">
        <ele>1144</ele>
        <time>2021-07-13T00:15:18.78Z</time>
      </trkpt>
      <trkpt lat="45.0489" lon="6.14079">
        <ele>1145.3</ele>
        <time>2021-07-13T00:15:39.10Z</time>
      </trkpt>
      <trkpt lat="45.04892" lon="6.14105">
        <ele>1146.4</ele>
        <time>2021-07-13T00:16:00.21Z</time>
      </trkpt>
      <trkpt lat="45.04898" lon="6.14089">
        <ele>1150.5</ele>
        <time>2021-07-13T00:16:14.84Z</time>
      </trkpt>
      <trkpt lat="45.04901" lon="6.14089">
        <ele>1152.3</ele>
        <time>2021-07-13T00:16:18.27Z</time>
      </trkpt>
      <trkpt lat="45.04903" lon="6.14096">
        <ele>1153.5</ele>
        <time>2021-07-13T00:16:24.36Z</time>
      </trkpt>
      <trkpt lat="45.04903" lon="6.14103">
        <ele>1153.4</ele>
        <time>2021-07-13T00:16:30.02Z</time>
      </trkpt>
      <trkpt lat="45.04904" lon="6.1411">
        <ele>1153.9</ele>
        <time>2021-07-13T00:16:35.78Z</time>
      </trkpt>
      <trkpt lat="45.04906" lon="6.14118">
        <ele>1155.1</ele>
        <time>2021-07-13T00:16:42.63Z</time>
      </trkpt>
      <trkpt lat="45.0491" lon="6.14129">
        <ele>1157.6</ele>
        <time>2021-07-13T00:16:52.62Z</time>
      </trkpt>
      <trkpt lat="45.04912" lon="6.14136">
        <ele>1158.9</ele>
        <time>2021-07-13T00:16:58.72Z</time>
      </trkpt>
      <trkpt lat="45.04915" lon="6.14149">
        <ele>1160.9</ele>
        <time>2021-07-13T00:17:09.76Z</time>
      </trkpt>
      <trkpt lat="45.04917" lon="6.14155">
        <ele>1162.1</ele>
        <time>2021-07-13T00:17:15.12Z</time>
      </trkpt>
      <trkpt lat="45.04919" lon="6.14161">
        <ele>1162.8</ele>
        <time>2021-07-13T00:17:20.48Z</time>
      </trkpt>
      <trkpt lat="45.04922" lon="6.14168">
        <ele>1163.7</ele>
        <time>2021-07-13T00:17:27.09Z</time>
      </trkpt>
      <trkpt lat="45.04926" lon="6.14172">
        <ele>1164.7</ele>
        <time>2021-07-13T00:17:32.68Z</time>
      </trkpt>
      <trkpt lat="45.04933" lon="6.14179">
        <ele>1166.5</ele>
        <time>2021-07-13T00:17:42.48Z</time>
      </trkpt>
      <trkpt lat="45.04937" lon="6.14182">
        <ele>1167.7</ele>
        <time>2021-07-13T00:17:47.65Z</time>
      </trkpt>
      <trkpt lat="45.04941" lon="6.14187">
        <ele>1168.7</ele>
        <time>2021-07-13T00:17:53.75Z</time>
      </trkpt>
      <trkpt lat="45.04945" lon="6.14191">
        <ele>1169.8</ele>
        <time>2021-07-13T00:17:59.35Z</time>
      </trkpt>
      <trkpt lat="45.0495" lon="6.14193">
        <ele>1171.4</ele>
        <time>2021-07-13T00:18:05.29Z</time>
      </trkpt>
      <trkpt lat="45.04955" lon="6.14197">
        <ele>1172.8</ele>
        <time>2021-07-13T00:18:11.85Z</time>
      </trkpt>
      <trkpt lat="45.04957" lon="6.14202">
        <ele>1173.2</ele>
        <time>2021-07-13T00:18:16.49Z</time>
      </trkpt>
      <trkpt lat="45.04962" lon="6.14202">
        <ele>1175</ele>
        <time>2021-07-13T00:18:22.20Z</time>
      </trkpt>
      <trkpt lat="45.04973" lon="6.14222">
        <ele>1177.6</ele>
        <time>2021-07-13T00:18:42.67Z</time>
      </trkpt>
      <trkpt lat="45.04983" lon="6.14236">
        <ele>1180.5</ele>
        <time>2021-07-13T00:18:58.74Z</time>
      </trkpt>
      <trkpt lat="45.04987" lon="6.14244">
        <ele>1181.5</ele>
        <time>2021-07-13T00:19:06.66Z</time>
      </trkpt>
      <trkpt lat="45.04993" lon="6.1426">
        <ele>1183.9</ele>
        <time>2021-07-13T00:19:21.28Z</time>
      </trkpt>
      <trkpt lat="45.04997" lon="6.14268">
        <ele>1185.9</ele>
        <time>2021-07-13T00:19:29.20Z</time>
      </trkpt>
      <trkpt lat="45.05008" lon="6.14274">
        <ele>1187.3</ele>
        <time>2021-07-13T00:19:42.67Z</time>
      </trkpt>
      <trkpt lat="45.05011" lon="6.14281">
        <ele>1187.8</ele>
        <time>2021-07-13T00:19:49.28Z</time>
      </trkpt>
      <trkpt lat="45.05014" lon="6.14291">
        <ele>1188.5</ele>
        <time>2021-07-13T00:19:58.05Z</time>
      </trkpt>
      <trkpt lat="45.05016" lon="6.14305">
        <ele>1189.5</ele>
        <time>2021-07-13T00:20:09.58Z</time>
      </trkpt>
      <trkpt lat="45.05019" lon="6.14311">
        <ele>1190</ele>
        <time>2021-07-13T00:20:15.52Z</time>
      </trkpt>
      <trkpt lat="45.05019" lon="6.14318">
        <ele>1190.5</ele>
        <time>2021-07-13T00:20:21.17Z</time>
      </trkpt>
      <trkpt lat="45.05018" lon="6.14328">
        <ele>1191.2</ele>
        <time>2021-07-13T00:20:29.33Z</time>
      </trkpt>
      <trkpt lat="45.05011" lon="6.14348">
        <ele>1195.2</ele>
        <time>2021-07-13T00:20:47.35Z</time>
      </trkpt>
      <trkpt lat="45.05002" lon="6.14362">
        <ele>1197.8</ele>
        <time>2021-07-13T00:21:02.63Z</time>
      </trkpt>
      <trkpt lat="45.04986" lon="6.14383">
        <ele>1194.7</ele>
        <time>2021-07-13T00:21:27.57Z</time>
      </trkpt>
      <trkpt lat="45.04973" lon="6.14407">
        <ele>1192</ele>
        <time>2021-07-13T00:21:51.98Z</time>
      </trkpt>
      <trkpt lat="45.04963" lon="6.14426">
        <ele>1191.3</ele>
        <time>2021-07-13T00:22:11.11Z</time>
      </trkpt>
      <trkpt lat="45.04956" lon="6.14444">
        <ele>1193.8</ele>
        <time>2021-07-13T00:22:27.70Z</time>
      </trkpt>
      <trkpt lat="45.0495" lon="6.14469">
        <ele>1199.6</ele>
        <time>2021-07-13T00:22:49.02Z</time>
      </trkpt>
      <trkpt lat="45.0495" lon="6.14476">
        <ele>1202.2</ele>
        <time>2021-07-13T00:22:54.68Z</time>
      </trkpt>
      <trkpt lat="45.04954" lon="6.14487">
        <ele>1208.7</ele>
        <time>2021-07-13T00:23:04.66Z</time>
      </trkpt>
      <trkpt lat="45.0496" lon="6.14496">
        <ele>1215.5</ele>
        <time>2021-07-13T00:23:14.66Z</time>
      </trkpt>
      <trkpt lat="45.04965" lon="6.14506">
        <ele>1223.9</ele>
        <time>2021-07-13T00:23:24.55Z</time>
      </trkpt>
      <trkpt lat="45.04968" lon="6.14517">
        <ele>1233</ele>
        <time>2021-07-13T00:23:34.07Z</time>
      </trkpt>
      <trkpt lat="45.04967" lon="6.14529">
        <ele>1240.5</ele>
        <time>2021-07-13T00:23:43.82Z</time>
      </trkpt>
      <trkpt lat="45.04964" lon="6.14536">
        <ele>1243.7</ele>
        <time>2021-07-13T00:23:50.43Z</time>
      </trkpt>
      <trkpt lat="45.0496" lon="6.14539">
        <ele>1243.7</ele>
        <time>2021-07-13T00:23:55.61Z</time>
      </trkpt>
      <trkpt lat="45.04954" lon="6.1454">
        <ele>1241.4</ele>
        <time>2021-07-13T00:24:02.51Z</time>
      </trkpt>
      <trkpt lat="45.04948" lon="6.14545">
        <ele>1242</ele>
        <time>2021-07-13T00:24:10.47Z</time>
      </trkpt>
      <trkpt lat="45.04941" lon="6.14556">
        <ele>1246.5</ele>
        <time>2021-07-13T00:24:22.42Z</time>
      </trkpt>
      <trkpt lat="45.04904" lon="6.14581">
        <ele>1246.5</ele>
        <time>2021-07-13T00:25:09.28Z</time>
      </trkpt>
      <trkpt lat="45.04888" lon="6.14597">
        <ele>1250.6</ele>
        <time>2021-07-13T00:25:31.67Z</time>
      </trkpt>
      <trkpt lat="45.04876" lon="6.14615">
        <ele>1259.9</ele>
        <time>2021-07-13T00:25:51.65Z</time>
      </trkpt>
      <trkpt lat="45.04874" lon="6.14626">
        <ele>1268.9</ele>
        <time>2021-07-13T00:26:00.82Z</time>
      </trkpt>
      <trkpt lat="45.04869" lon="6.1463">
        <ele>1270</ele>
        <time>2021-07-13T00:26:07.39Z</time>
      </trkpt>
      <trkpt lat="45.04859" lon="6.14627">
        <ele>1261.9</ele>
        <time>2021-07-13T00:26:19.07Z</time>
      </trkpt>
      <trkpt lat="45.04846" lon="6.14628">
        <ele>1256.1</ele>
        <time>2021-07-13T00:26:33.95Z</time>
      </trkpt>
      <trkpt lat="45.0483" lon="6.14632">
        <ele>1251.7</ele>
        <time>2021-07-13T00:26:52.52Z</time>
      </trkpt>
      <trkpt lat="45.04822" lon="6.14637">
        <ele>1252.6</ele>
        <time>2021-07-13T00:27:02.51Z</time>
      </trkpt>
      <trkpt lat="45.0482" lon="6.14642">
        <ele>1256.7</ele>
        <time>2021-07-13T00:27:07.15Z</time>
      </trkpt>
      <trkpt lat="45.04817" lon="6.14647">
        <ele>1260.4</ele>
        <time>2021-07-13T00:27:12.45Z</time>
      </trkpt>
      <trkpt lat="45.04832" lon="6.14652">
        <ele>1272.8</ele>
        <time>2021-07-13T00:27:30.06Z</time>
      </trkpt>
      <trkpt lat="45.04839" lon="6.14656">
        <ele>1280</ele>
        <time>2021-07-13T00:27:38.69Z</time>
      </trkpt>
      <trkpt lat="45.04835" lon="6.14656">
        <ele>1278.2</ele>
        <time>2021-07-13T00:27:43.26Z</time>
      </trkpt>
      <trkpt lat="45.04827" lon="6.14661">
        <ele>1279.5</ele>
        <time>2021-07-13T00:27:53.25Z</time>
      </trkpt>
      <trkpt lat="45.04822" lon="6.1467">
        <ele>1283.6</ele>
        <time>2021-07-13T00:28:02.50Z</time>
      </trkpt>
      <trkpt lat="45.04816" lon="6.14682">
        <ele>1283.3</ele>
        <time>2021-07-13T00:28:14.37Z</time>
      </trkpt>
      <trkpt lat="45.04811" lon="6.14696">
        <ele>1283.7</ele>
        <time>2021-07-13T00:28:27.03Z</time>
      </trkpt>
      <trkpt lat="45.04806" lon="6.14703">
        <ele>1282.7</ele>
        <time>2021-07-13T00:28:35.07Z</time>
      </trkpt>
      <trkpt lat="45.04796" lon="6.14707">
        <ele>1278.8</ele>
        <time>2021-07-13T00:28:46.95Z</time>
      </trkpt>
      <trkpt lat="45.04787" lon="6.14708">
        <ele>1274.8</ele>
        <time>2021-07-13T00:28:57.26Z</time>
      </trkpt>
      <trkpt lat="45.04783" lon="6.1471">
        <ele>1273.2</ele>
        <time>2021-07-13T00:29:02.11Z</time>
      </trkpt>
      <trkpt lat="45.04781" lon="6.14713">
        <ele>1272.8</ele>
        <time>2021-07-13T00:29:05.44Z</time>
      </trkpt>
      <trkpt lat="45.04781" lon="6.14723">
        <ele>1274.6</ele>
        <time>2021-07-13T00:29:13.52Z</time>
      </trkpt>
      <trkpt lat="45.04781" lon="6.14739">
        <ele>1277.3</ele>
        <time>2021-07-13T00:29:26.44Z</time>
      </trkpt>
      <trkpt lat="45.04783" lon="6.14753">
        <ele>1280</ele>
        <time>2021-07-13T00:29:37.97Z</time>
      </trkpt>
      <trkpt lat="45.04789" lon="6.14779">
        <ele>1280.7</ele>
        <time>2021-07-13T00:30:00.06Z</time>
      </trkpt>
      <trkpt lat="45.048" lon="6.14821">
        <ele>1282.8</ele>
        <time>2021-07-13T00:30:36.22Z</time>
      </trkpt>
      <trkpt lat="45.04804" lon="6.14845">
        <ele>1285</ele>
        <time>2021-07-13T00:30:56.13Z</time>
      </trkpt>
      <trkpt lat="45.04804" lon="6.14866">
        <ele>1287.1</ele>
        <time>2021-07-13T00:31:13.09Z</time>
      </trkpt>
      <trkpt lat="45.04802" lon="6.14892">
        <ele>1288.8</ele>
        <time>2021-07-13T00:31:34.21Z</time>
      </trkpt>
      <trkpt lat="45.04794" lon="6.14905">
        <ele>1287</ele>
        <time>2021-07-13T00:31:48.13Z</time>
      </trkpt>
      <trkpt lat="45.04787" lon="6.14917">
        <ele>1285.8</ele>
        <time>2021-07-13T00:32:00.69Z</time>
      </trkpt>
      <trkpt lat="45.04764" lon="6.14936">
        <ele>1280.8</ele>
        <time>2021-07-13T00:32:31.13Z</time>
      </trkpt>
      <trkpt lat="45.04752" lon="6.14948">
        <ele>1278.4</ele>
        <time>2021-07-13T00:32:47.92Z</time>
      </trkpt>
      <trkpt lat="45.04744" lon="6.14963">
        <ele>1277.5</ele>
        <time>2021-07-13T00:33:03.10Z</time>
      </trkpt>
      <trkpt lat="45.04741" lon="6.14973">
        <ele>1277.9</ele>
        <time>2021-07-13T00:33:11.87Z</time>
      </trkpt>
      <trkpt lat="45.04732" lon="6.15003">
        <ele>1278.9</ele>
        <time>2021-07-13T00:33:38.18Z</time>
      </trkpt>
      <trkpt lat="45.04723" lon="6.15037">
        <ele>1278.1</ele>
        <time>2021-07-13T00:34:07.50Z</time>
      </trkpt>
      <trkpt lat="45.04717" lon="6.15068">
        <ele>1278.1</ele>
        <time>2021-07-13T00:34:33.46Z</time>
      </trkpt>
      <trkpt lat="45.04716" lon="6.15084">
        <ele>1279</ele>
        <time>2021-07-13T00:34:46.42Z</time>
      </trkpt>
      <trkpt lat="45.04718" lon="6.1509">
        <ele>1279.2</ele>
        <time>2021-07-13T00:34:51.78Z</time>
      </trkpt>
      <trkpt lat="45.04723" lon="6.15089">
        <ele>1282</ele>
        <time>2021-07-13T00:34:57.55Z</time>
      </trkpt>
      <trkpt lat="45.04726" lon="6.15099">
        <ele>1282.4</ele>
        <time>2021-07-13T00:35:06.33Z</time>
      </trkpt>
      <trkpt lat="45.04732" lon="6.15112">
        <ele>1284</ele>
        <time>2021-07-13T00:35:18.86Z</time>
      </trkpt>
      <trkpt lat="45.04741" lon="6.15128">
        <ele>1287.1</ele>
        <time>2021-07-13T00:35:35.38Z</time>
      </trkpt>
      <trkpt lat="45.04749" lon="6.15151">
        <ele>1289.1</ele>
        <time>2021-07-13T00:35:56.08Z</time>
      </trkpt>
      <trkpt lat="45.04758" lon="6.15173">
        <ele>1290.8</ele>
        <time>2021-07-13T00:36:16.60Z</time>
      </trkpt>
      <trkpt lat="45.04764" lon="6.15186">
        <ele>1290.9</ele>
        <time>2021-07-13T00:36:29.14Z</time>
      </trkpt>
      <trkpt lat="45.04773" lon="6.15203">
        <ele>1291.7</ele>
        <time>2021-07-13T00:36:46.29Z</time>
      </trkpt>
      <trkpt lat="45.0478" lon="6.15216">
        <ele>1292.4</ele>
        <time>2021-07-13T00:36:59.49Z</time>
      </trkpt>
      <trkpt lat="45.04783" lon="6.15226">
        <ele>1291.6</ele>
        <time>2021-07-13T00:37:08.26Z</time>
      </trkpt>
      <trkpt lat="45.04789" lon="6.15237">
        <ele>1292.2</ele>
        <time>2021-07-13T00:37:19.49Z</time>
      </trkpt>
      <trkpt lat="45.04794" lon="6.15245">
        <ele>1293</ele>
        <time>2021-07-13T00:37:28.11Z</time>
      </trkpt>
      <trkpt lat="45.048" lon="6.15256">
        <ele>1293.8</ele>
        <time>2021-07-13T00:37:39.33Z</time>
      </trkpt>
      <trkpt lat="45.04805" lon="6.15268">
        <ele>1293.9</ele>
        <time>2021-07-13T00:37:50.58Z</time>
      </trkpt>
      <trkpt lat="45.04809" lon="6.15277">
        <ele>1294</ele>
        <time>2021-07-13T00:37:59.16Z</time>
      </trkpt>
      <trkpt lat="45.04816" lon="6.15292">
        <ele>1294.3</ele>
        <time>2021-07-13T00:38:13.68Z</time>
      </trkpt>
      <trkpt lat="45.0482" lon="6.153">
        <ele>1294.5</ele>
        <time>2021-07-13T00:38:21.59Z</time>
      </trkpt>
      <trkpt lat="45.04824" lon="6.15316">
        <ele>1292.7</ele>
        <time>2021-07-13T00:38:35.30Z</time>
      </trkpt>
      <trkpt lat="45.04827" lon="6.15326">
        <ele>1291.8</ele>
        <time>2021-07-13T00:38:44.07Z</time>
      </trkpt>
      <trkpt lat="45.04831" lon="6.15334">
        <ele>1291.8</ele>
        <time>2021-07-13T00:38:51.98Z</time>
      </trkpt>
      <trkpt lat="45.04835" lon="6.15339">
        <ele>1292.7</ele>
        <time>2021-07-13T00:38:58.08Z</time>
      </trkpt>
      <trkpt lat="45.0484" lon="6.15345">
        <ele>1294.3</ele>
        <time>2021-07-13T00:39:05.57Z</time>
      </trkpt>
      <trkpt lat="45.04845" lon="6.15352">
        <ele>1295.7</ele>
        <time>2021-07-13T00:39:13.61Z</time>
      </trkpt>
      <trkpt lat="45.04852" lon="6.15358">
        <ele>1298.5</ele>
        <time>2021-07-13T00:39:22.96Z</time>
      </trkpt>
      <trkpt lat="45.04859" lon="6.15365">
        <ele>1301.2</ele>
        <time>2021-07-13T00:39:32.76Z</time>
      </trkpt>
      <trkpt lat="45.04864" lon="6.15372">
        <ele>1302.8</ele>
        <time>2021-07-13T00:39:40.80Z</time>
      </trkpt>
      <trkpt lat="45.04871" lon="6.1538">
        <ele>1305.4</ele>
        <time>2021-07-13T00:39:51.08Z</time>
      </trkpt>
      <trkpt lat="45.04876" lon="6.15387">
        <ele>1307.1</ele>
        <time>2021-07-13T00:39:59.12Z</time>
      </trkpt>
      <trkpt lat="45.04878" lon="6.15391">
        <ele>1307.6</ele>
        <time>2021-07-13T00:40:03.07Z</time>
      </trkpt>
      <trkpt lat="45.04879" lon="6.15399">
        <ele>1306.7</ele>
        <time>2021-07-13T00:40:09.63Z</time>
      </trkpt>
      <trkpt lat="45.04874" lon="6.15436">
        <ele>1297.6</ele>
        <time>2021-07-13T00:40:40.05Z</time>
      </trkpt>
      <trkpt lat="45.04874" lon="6.15449">
        <ele>1295.8</ele>
        <time>2021-07-13T00:40:50.55Z</time>
      </trkpt>
      <trkpt lat="45.04874" lon="6.1546">
        <ele>1294.2</ele>
        <time>2021-07-13T00:40:59.43Z</time>
      </trkpt>
      <trkpt lat="45.04875" lon="6.15469">
        <ele>1293.5</ele>
        <time>2021-07-13T00:41:06.78Z</time>
      </trkpt>
      <trkpt lat="45.04877" lon="6.1548">
        <ele>1293</ele>
        <time>2021-07-13T00:41:15.95Z</time>
      </trkpt>
      <trkpt lat="45.04881" lon="6.155">
        <ele>1292.2</ele>
        <time>2021-07-13T00:41:32.74Z</time>
      </trkpt>
      <trkpt lat="45.04885" lon="6.15518">
        <ele>1290.3</ele>
        <time>2021-07-13T00:41:47.97Z</time>
      </trkpt>
      <trkpt lat="45.04889" lon="6.15526">
        <ele>1290.6</ele>
        <time>2021-07-13T00:41:55.89Z</time>
      </trkpt>
      <trkpt lat="45.04894" lon="6.1553">
        <ele>1292.2</ele>
        <time>2021-07-13T00:42:02.45Z</time>
      </trkpt>
      <trkpt lat="45.04899" lon="6.15532">
        <ele>1294.3</ele>
        <time>2021-07-13T00:42:08.39Z</time>
      </trkpt>
      <trkpt lat="45.04909" lon="6.15534">
        <ele>1298.9</ele>
        <time>2021-07-13T00:42:19.93Z</time>
      </trkpt>
      <trkpt lat="45.04924" lon="6.15534">
        <ele>1306.1</ele>
        <time>2021-07-13T00:42:37.07Z</time>
      </trkpt>
      <trkpt lat="45.04932" lon="6.15535">
        <ele>1309.5</ele>
        <time>2021-07-13T00:42:46.25Z</time>
      </trkpt>
      <trkpt lat="45.04934" lon="6.1554">
        <ele>1309.3</ele>
        <time>2021-07-13T00:42:50.89Z</time>
      </trkpt>
      <trkpt lat="45.04936" lon="6.15543">
        <ele>1309.5</ele>
        <time>2021-07-13T00:42:54.22Z</time>
      </trkpt>
      <trkpt lat="45.04937" lon="6.1555">
        <ele>1308.4</ele>
        <time>2021-07-13T00:42:59.99Z</time>
      </trkpt>
      <trkpt lat="45.04931" lon="6.15583">
        <ele>1298.1</ele>
        <time>2021-07-13T00:43:27.50Z</time>
      </trkpt>
      <trkpt lat="45.04926" lon="6.15605">
        <ele>1291.1</ele>
        <time>2021-07-13T00:43:46.16Z</time>
      </trkpt>
      <trkpt lat="45.04923" lon="6.15622">
        <ele>1286</ele>
        <time>2021-07-13T00:44:00.31Z</time>
      </trkpt>
      <trkpt lat="45.04926" lon="6.15631">
        <ele>1285.7</ele>
        <time>2021-07-13T00:44:08.35Z</time>
      </trkpt>
      <trkpt lat="45.04936" lon="6.15642">
        <ele>1288.8</ele>
        <time>2021-07-13T00:44:22.82Z</time>
      </trkpt>
      <trkpt lat="45.04959" lon="6.15662">
        <ele>1297.7</ele>
        <time>2021-07-13T00:44:53.67Z</time>
      </trkpt>
      <trkpt lat="45.04967" lon="6.1567">
        <ele>1301.1</ele>
        <time>2021-07-13T00:45:04.86Z</time>
      </trkpt>
      <trkpt lat="45.0497" lon="6.15676">
        <ele>1302.2</ele>
        <time>2021-07-13T00:45:10.80Z</time>
      </trkpt>
      <trkpt lat="45.04972" lon="6.15695">
        <ele>1301.3</ele>
        <time>2021-07-13T00:45:26.31Z</time>
      </trkpt>
      <trkpt lat="45.04983" lon="6.15739">
        <ele>1301.1</ele>
        <time>2021-07-13T00:46:03.99Z</time>
      </trkpt>
      <trkpt lat="45.04985" lon="6.15748">
        <ele>1300.7</ele>
        <time>2021-07-13T00:46:11.61Z</time>
      </trkpt>
      <trkpt lat="45.04982" lon="6.15753">
        <ele>1300</ele>
        <time>2021-07-13T00:46:16.91Z</time>
      </trkpt>
      <trkpt lat="45.04978" lon="6.15756">
        <ele>1299.2</ele>
        <time>2021-07-13T00:46:22.08Z</time>
      </trkpt>
      <trkpt lat="45.04971" lon="6.15756">
        <ele>1296.7</ele>
        <time>2021-07-13T00:46:30.08Z</time>
      </trkpt>
      <trkpt lat="45.04964" lon="6.15762">
        <ele>1295.9</ele>
        <time>2021-07-13T00:46:39.43Z</time>
      </trkpt>
      <trkpt lat="45.04955" lon="6.15773">
        <ele>1296.1</ele>
        <time>2021-07-13T00:46:53.02Z</time>
      </trkpt>
      <trkpt lat="45.04952" lon="6.15784">
        <ele>1298.6</ele>
        <time>2021-07-13T00:47:02.54Z</time>
      </trkpt>
      <trkpt lat="45.04951" lon="6.15799">
        <ele>1302.9</ele>
        <time>2021-07-13T00:47:14.71Z</time>
      </trkpt>
      <trkpt lat="45.04949" lon="6.15808">
        <ele>1305.3</ele>
        <time>2021-07-13T00:47:22.33Z</time>
      </trkpt>
      <trkpt lat="45.04945" lon="6.15811">
        <ele>1305.5</ele>
        <time>2021-07-13T00:47:27.50Z</time>
      </trkpt>
      <trkpt lat="45.04929" lon="6.15811">
        <ele>1302.3</ele>
        <time>2021-07-13T00:47:45.79Z</time>
      </trkpt>
      <trkpt lat="45.0492" lon="6.15806">
        <ele>1298.6</ele>
        <time>2021-07-13T00:47:56.84Z</time>
      </trkpt>
      <trkpt lat="45.04912" lon="6.15803">
        <ele>1296.3</ele>
        <time>2021-07-13T00:48:06.29Z</time>
      </trkpt>
      <trkpt lat="45.04906" lon="6.15806">
        <ele>1297.1</ele>
        <time>2021-07-13T00:48:13.57Z</time>
      </trkpt>
      <trkpt lat="45.04892" lon="6.15809">
        <ele>1297.6</ele>
        <time>2021-07-13T00:48:29.75Z</time>
      </trkpt>
      <trkpt lat="45.04888" lon="6.15808">
        <ele>1296.9</ele>
        <time>2021-07-13T00:48:34.39Z</time>
      </trkpt>
      <trkpt lat="45.04874" lon="6.15804">
        <ele>1294</ele>
        <time>2021-07-13T00:48:50.71Z</time>
      </trkpt>
      <trkpt lat="45.0486" lon="6.15805">
        <ele>1293.5</ele>
        <time>2021-07-13T00:49:06.73Z</time>
      </trkpt>
      <trkpt lat="45.04854" lon="6.15807">
        <ele>1294.2</ele>
        <time>2021-07-13T00:49:13.78Z</time>
      </trkpt>
      <trkpt lat="45.04847" lon="6.15812">
        <ele>1296.7</ele>
        <time>2021-07-13T00:49:22.74Z</time>
      </trkpt>
      <trkpt lat="45.04842" lon="6.15811">
        <ele>1295.8</ele>
        <time>2021-07-13T00:49:28.51Z</time>
      </trkpt>
      <trkpt lat="45.04832" lon="6.15808">
        <ele>1293.5</ele>
        <time>2021-07-13T00:49:40.19Z</time>
      </trkpt>
      <trkpt lat="45.04808" lon="6.15803">
        <ele>1290.2</ele>
        <time>2021-07-13T00:50:07.92Z</time>
      </trkpt>
      <trkpt lat="45.04752" lon="6.15803">
        <ele>1289.8</ele>
        <time>2021-07-13T00:51:11.92Z</time>
      </trkpt>
      <trkpt lat="45.04738" lon="6.15806">
        <ele>1288.1</ele>
        <time>2021-07-13T00:51:28.10Z</time>
      </trkpt>
      <trkpt lat="45.04723" lon="6.15814">
        <ele>1288.1</ele>
        <time>2021-07-13T00:51:46.42Z</time>
      </trkpt>
      <trkpt lat="45.04716" lon="6.15819">
        <ele>1288.8</ele>
        <time>2021-07-13T00:51:55.38Z</time>
      </trkpt>
      <trkpt lat="45.04695" lon="6.15836">
        <ele>1291.6</ele>
        <time>2021-07-13T00:52:23.03Z</time>
      </trkpt>
      <trkpt lat="45.04686" lon="6.15848">
        <ele>1292.6</ele>
        <time>2021-07-13T00:52:37.16Z</time>
      </trkpt>
      <trkpt lat="45.04678" lon="6.15863">
        <ele>1294</ele>
        <time>2021-07-13T00:52:52.33Z</time>
      </trkpt>
      <trkpt lat="45.04675" lon="6.15869">
        <ele>1294.5</ele>
        <time>2021-07-13T00:52:58.27Z</time>
      </trkpt>
      <trkpt lat="45.04662" lon="6.15888">
        <ele>1293.3</ele>
        <time>2021-07-13T00:53:19.63Z</time>
      </trkpt>
      <trkpt lat="45.04649" lon="6.15902">
        <ele>1289.7</ele>
        <time>2021-07-13T00:53:38.30Z</time>
      </trkpt>
      <trkpt lat="45.04645" lon="6.15907">
        <ele>1288.9</ele>
        <time>2021-07-13T00:53:44.39Z</time>
      </trkpt>
      <trkpt lat="45.04644" lon="6.1592">
        <ele>1291</ele>
        <time>2021-07-13T00:53:54.95Z</time>
      </trkpt>
      <trkpt lat="45.04649" lon="6.15946">
        <ele>1294.8</ele>
        <time>2021-07-13T00:54:16.71Z</time>
      </trkpt>
      <trkpt lat="45.04656" lon="6.15977">
        <ele>1300.9</ele>
        <time>2021-07-13T00:54:42.99Z</time>
      </trkpt>
      <trkpt lat="45.04665" lon="6.16034">
        <ele>1307.2</ele>
        <time>2021-07-13T00:55:30.15Z</time>
      </trkpt>
      <trkpt lat="45.04677" lon="6.16078">
        <ele>1313</ele>
        <time>2021-07-13T00:56:08.23Z</time>
      </trkpt>
      <trkpt lat="45.04687" lon="6.16122">
        <ele>1314.5</ele>
        <time>2021-07-13T00:56:45.56Z</time>
      </trkpt>
      <trkpt lat="45.04719" lon="6.16242">
        <ele>1318.2</ele>
        <time>2021-07-13T00:58:29.12Z</time>
      </trkpt>
      <trkpt lat="45.04728" lon="6.16276">
        <ele>1315.2</ele>
        <time>2021-07-13T00:58:58.44Z</time>
      </trkpt>
      <trkpt lat="45.04737" lon="6.16306">
        <ele>1311.6</ele>
        <time>2021-07-13T00:59:24.76Z</time>
      </trkpt>
      <trkpt lat="45.04748" lon="6.16325">
        <ele>1312.7</ele>
        <time>2021-07-13T00:59:44.59Z</time>
      </trkpt>
      <trkpt lat="45.04758" lon="6.16345">
        <ele>1317.9</ele>
        <time>2021-07-13T01:00:04.38Z</time>
      </trkpt>
      <trkpt lat="45.04769" lon="6.1636">
        <ele>1326.7</ele>
        <time>2021-07-13T01:00:21.83Z</time>
      </trkpt>
      <trkpt lat="45.04786" lon="6.16371">
        <ele>1339.1</ele>
        <time>2021-07-13T01:00:43.19Z</time>
      </trkpt>
      <trkpt lat="45.04793" lon="6.16377">
        <ele>1343.8</ele>
        <time>2021-07-13T01:00:52.55Z</time>
      </trkpt>
      <trkpt lat="45.04795" lon="6.16383">
        <ele>1344.9</ele>
        <time>2021-07-13T01:00:57.90Z</time>
      </trkpt>
      <trkpt lat="45.04797" lon="6.16391">
        <ele>1345.7</ele>
        <time>2021-07-13T01:01:04.76Z</time>
      </trkpt>
      <trkpt lat="45.04801" lon="6.164">
        <ele>1347.6</ele>
        <time>2021-07-13T01:01:13.34Z</time>
      </trkpt>
      <trkpt lat="45.04793" lon="6.16406">
        <ele>1342</ele>
        <time>2021-07-13T01:01:23.69Z</time>
      </trkpt>
      <trkpt lat="45.04793" lon="6.16412">
        <ele>1341.6</ele>
        <time>2021-07-13T01:01:28.53Z</time>
      </trkpt>
      <trkpt lat="45.04799" lon="6.16423">
        <ele>1347.9</ele>
        <time>2021-07-13T01:01:39.75Z</time>
      </trkpt>
      <trkpt lat="45.04802" lon="6.16431">
        <ele>1353.4</ele>
        <time>2021-07-13T01:01:47.07Z</time>
      </trkpt>
      <trkpt lat="45.04799" lon="6.16437">
        <ele>1354.4</ele>
        <time>2021-07-13T01:01:53Z</time>
      </trkpt>
      <trkpt lat="45.04794" lon="6.16441">
        <ele>1353.3</ele>
        <time>2021-07-13T01:01:59.57Z</time>
      </trkpt>
      <trkpt lat="45.04773" lon="6.16449">
        <ele>1344.6</ele>
        <time>2021-07-13T01:02:24.42Z</time>
      </trkpt>
      <trkpt lat="45.04752" lon="6.16458">
        <ele>1336.5</ele>
        <time>2021-07-13T01:02:49.50Z</time>
      </trkpt>
      <trkpt lat="45.04738" lon="6.16461">
        <ele>1332.1</ele>
        <time>2021-07-13T01:03:05.68Z</time>
      </trkpt>
      <trkpt lat="45.0473" lon="6.16464">
        <ele>1330.5</ele>
        <time>2021-07-13T01:03:15.14Z</time>
      </trkpt>
      <trkpt lat="45.04721" lon="6.16472">
        <ele>1331</ele>
        <time>2021-07-13T01:03:27.28Z</time>
      </trkpt>
      <trkpt lat="45.047" lon="6.16484">
        <ele>1328.8</ele>
        <time>2021-07-13T01:03:53.16Z</time>
      </trkpt>
      <trkpt lat="45.04693" lon="6.16493">
        <ele>1330.6</ele>
        <time>2021-07-13T01:04:03.97Z</time>
      </trkpt>
      <trkpt lat="45.04686" lon="6.16498">
        <ele>1330.4</ele>
        <time>2021-07-13T01:04:12.93Z</time>
      </trkpt>
      <trkpt lat="45.04672" lon="6.16512">
        <ele>1332</ele>
        <time>2021-07-13T01:04:32.52Z</time>
      </trkpt>
      <trkpt lat="45.04657" lon="6.16529">
        <ele>1332.2</ele>
        <time>2021-07-13T01:04:54.49Z</time>
      </trkpt>
      <trkpt lat="45.04642" lon="6.16552">
        <ele>1333.2</ele>
        <time>2021-07-13T01:05:19.76Z</time>
      </trkpt>
      <trkpt lat="45.04629" lon="6.1657">
        <ele>1332.2</ele>
        <time>2021-07-13T01:05:40.54Z</time>
      </trkpt>
      <trkpt lat="45.04627" lon="6.16579">
        <ele>1334.6</ele>
        <time>2021-07-13T01:05:48.16Z</time>
      </trkpt>
      <trkpt lat="45.04625" lon="6.1659">
        <ele>1336.2</ele>
        <time>2021-07-13T01:05:57.33Z</time>
      </trkpt>
      <trkpt lat="45.04626" lon="6.16613">
        <ele>1340.9</ele>
        <time>2021-07-13T01:06:15.94Z</time>
      </trkpt>
      <trkpt lat="45.04621" lon="6.16633">
        <ele>1340.6</ele>
        <time>2021-07-13T01:06:33.07Z</time>
      </trkpt>
      <trkpt lat="45.04612" lon="6.16654">
        <ele>1337</ele>
        <time>2021-07-13T01:06:52.90Z</time>
      </trkpt>
      <trkpt lat="45.04602" lon="6.1667">
        <ele>1331</ele>
        <time>2021-07-13T01:07:10.15Z</time>
      </trkpt>
      <trkpt lat="45.04599" lon="6.1668">
        <ele>1328.6</ele>
        <time>2021-07-13T01:07:18.93Z</time>
      </trkpt>
      <trkpt lat="45.04599" lon="6.16691">
        <ele>1328.6</ele>
        <time>2021-07-13T01:07:27.81Z</time>
      </trkpt>
      <trkpt lat="45.04604" lon="6.16709">
        <ele>1332.7</ele>
        <time>2021-07-13T01:07:43.43Z</time>
      </trkpt>
      <trkpt lat="45.04612" lon="6.16724">
        <ele>1339.5</ele>
        <time>2021-07-13T01:07:58.60Z</time>
      </trkpt>
      <trkpt lat="45.04621" lon="6.16733">
        <ele>1347.3</ele>
        <time>2021-07-13T01:08:11.19Z</time>
      </trkpt>
      <trkpt lat="45.04632" lon="6.16756">
        <ele>1352.7</ele>
        <time>2021-07-13T01:08:33.62Z</time>
      </trkpt>
      <trkpt lat="45.0464" lon="6.16779">
        <ele>1343.3</ele>
        <time>2021-07-13T01:08:54.32Z</time>
      </trkpt>
      <trkpt lat="45.04649" lon="6.16794">
        <ele>1340.9</ele>
        <time>2021-07-13T01:09:10.21Z</time>
      </trkpt>
      <trkpt lat="45.04666" lon="6.1683">
        <ele>1331.7</ele>
        <time>2021-07-13T01:09:45.18Z</time>
      </trkpt>
      <trkpt lat="45.04677" lon="6.16856">
        <ele>1337.2</ele>
        <time>2021-07-13T01:10:09.65Z</time>
      </trkpt>
      <trkpt lat="45.04682" lon="6.16881">
        <ele>1334.6</ele>
        <time>2021-07-13T01:10:30.63Z</time>
      </trkpt>
      <trkpt lat="45.04687" lon="6.16926">
        <ele>1324.3</ele>
        <time>2021-07-13T01:11:07.41Z</time>
      </trkpt>
      <trkpt lat="45.04691" lon="6.16962">
        <ele>1321.8</ele>
        <time>2021-07-13T01:11:36.83Z</time>
      </trkpt>
      <trkpt lat="45.04695" lon="6.1698">
        <ele>1320.9</ele>
        <time>2021-07-13T01:11:52.07Z</time>
      </trkpt>
      <trkpt lat="45.04707" lon="6.17008">
        <ele>1322.7</ele>
        <time>2021-07-13T01:12:18.51Z</time>
      </trkpt>
      <trkpt lat="45.04726" lon="6.17038">
        <ele>1331</ele>
        <time>2021-07-13T01:12:51.04Z</time>
      </trkpt>
      <trkpt lat="45.04736" lon="6.17048">
        <ele>1333.8</ele>
        <time>2021-07-13T01:13:05.04Z</time>
      </trkpt>
      <trkpt lat="45.04751" lon="6.1705">
        <ele>1335.9</ele>
        <time>2021-07-13T01:13:22.26Z</time>
      </trkpt>
      <trkpt lat="45.04763" lon="6.17052">
        <ele>1344.3</ele>
        <time>2021-07-13T01:13:36.07Z</time>
      </trkpt>
      <trkpt lat="45.0477" lon="6.17057">
        <ele>1349.5</ele>
        <time>2021-07-13T01:13:45.03Z</time>
      </trkpt>
      <trkpt lat="45.04773" lon="6.17062">
        <ele>1351.8</ele>
        <time>2021-07-13T01:13:50.32Z</time>
      </trkpt>
      <trkpt lat="45.04774" lon="6.17066">
        <ele>1352.8</ele>
        <time>2021-07-13T01:13:53.75Z</time>
      </trkpt>
      <trkpt lat="45.04773" lon="6.1707">
        <ele>1352.6</ele>
        <time>2021-07-13T01:13:57.18Z</time>
      </trkpt>
      <trkpt lat="45.0477" lon="6.17073">
        <ele>1351.2</ele>
        <time>2021-07-13T01:14:01.37Z</time>
      </trkpt>
      <trkpt lat="45.04764" lon="6.17075">
        <ele>1348.1</ele>
        <time>2021-07-13T01:14:08.42Z</time>
      </trkpt>
      <trkpt lat="45.04757" lon="6.17079">
        <ele>1344.9</ele>
        <time>2021-07-13T01:14:17.05Z</time>
      </trkpt>
      <trkpt lat="45.04748" lon="6.17089">
        <ele>1344</ele>
        <time>2021-07-13T01:14:30.12Z</time>
      </trkpt>
      <trkpt lat="45.04743" lon="6.17094">
        <ele>1345.7</ele>
        <time>2021-07-13T01:14:37.12Z</time>
      </trkpt>
      <trkpt lat="45.04728" lon="6.171">
        <ele>1347.4</ele>
        <time>2021-07-13T01:14:54.93Z</time>
      </trkpt>
      <trkpt lat="45.04705" lon="6.17109">
        <ele>1350.2</ele>
        <time>2021-07-13T01:15:22.20Z</time>
      </trkpt>
      <trkpt lat="45.04695" lon="6.17114">
        <ele>1352</ele>
        <time>2021-07-13T01:15:34.32Z</time>
      </trkpt>
      <trkpt lat="45.04689" lon="6.17115">
        <ele>1352.2</ele>
        <time>2021-07-13T01:15:41.23Z</time>
      </trkpt>
      <trkpt lat="45.04681" lon="6.17122">
        <ele>1355</ele>
        <time>2021-07-13T01:15:51.98Z</time>
      </trkpt>
      <trkpt lat="45.04669" lon="6.17129">
        <ele>1357.8</ele>
        <time>2021-07-13T01:16:06.81Z</time>
      </trkpt>
      <trkpt lat="45.04648" lon="6.17137">
        <ele>1351.1</ele>
        <time>2021-07-13T01:16:31.67Z</time>
      </trkpt>
      <trkpt lat="45.0463" lon="6.17153">
        <ele>1347.8</ele>
        <time>2021-07-13T01:16:55.96Z</time>
      </trkpt>
      <trkpt lat="45.04628" lon="6.17158">
        <ele>1348.7</ele>
        <time>2021-07-13T01:17:00.60Z</time>
      </trkpt>
      <trkpt lat="45.04626" lon="6.17162">
        <ele>1349.2</ele>
        <time>2021-07-13T01:17:04.55Z</time>
      </trkpt>
      <trkpt lat="45.04621" lon="6.17172">
        <ele>1349.5</ele>
        <time>2021-07-13T01:17:14.45Z</time>
      </trkpt>
      <trkpt lat="45.0461" lon="6.17186">
        <ele>1345.8</ele>
        <time>2021-07-13T01:17:31.35Z</time>
      </trkpt>
      <trkpt lat="45.04604" lon="6.17188">
        <ele>1342.3</ele>
        <time>2021-07-13T01:17:38.40Z</time>
      </trkpt>
      <trkpt lat="45.04596" lon="6.17189">
        <ele>1337.3</ele>
        <time>2021-07-13T01:17:47.58Z</time>
      </trkpt>
      <trkpt lat="45.04586" lon="6.17204">
        <ele>1332.4</ele>
        <time>2021-07-13T01:18:04.23Z</time>
      </trkpt>
      <trkpt lat="45.04579" lon="6.17221">
        <ele>1329.8</ele>
        <time>2021-07-13T01:18:20.12Z</time>
      </trkpt>
      <trkpt lat="45.04578" lon="6.17232">
        <ele>1330.5</ele>
        <time>2021-07-13T01:18:29.07Z</time>
      </trkpt>
      <trkpt lat="45.04583" lon="6.17244">
        <ele>1334.3</ele>
        <time>2021-07-13T01:18:40.32Z</time>
      </trkpt>
      <trkpt lat="45.04583" lon="6.17253">
        <ele>1335.8</ele>
        <time>2021-07-13T01:18:47.59Z</time>
      </trkpt>
      <trkpt lat="45.04583" lon="6.17265">
        <ele>1339.7</ele>
        <time>2021-07-13T01:18:57.28Z</time>
      </trkpt>
      <trkpt lat="45.0459" lon="6.17278">
        <ele>1349.6</ele>
        <time>2021-07-13T01:19:10.48Z</time>
      </trkpt>
      <trkpt lat="45.04591" lon="6.17288">
        <ele>1353.6</ele>
        <time>2021-07-13T01:19:18.63Z</time>
      </trkpt>
      <trkpt lat="45.04587" lon="6.17307">
        <ele>1356.4</ele>
        <time>2021-07-13T01:19:34.64Z</time>
      </trkpt>
      <trkpt lat="45.04587" lon="6.17321">
        <ele>1360.8</ele>
        <time>2021-07-13T01:19:45.95Z</time>
      </trkpt>
      <trkpt lat="45.04591" lon="6.17337">
        <ele>1369.4</ele>
        <time>2021-07-13T01:19:59.65Z</time>
      </trkpt>
      <trkpt lat="45.04597" lon="6.17351">
        <ele>1380</ele>
        <time>2021-07-13T01:20:12.87Z</time>
      </trkpt>
      <trkpt lat="45.04602" lon="6.17371">
        <ele>1392.5</ele>
        <time>2021-07-13T01:20:30Z</time>
      </trkpt>
      <trkpt lat="45.04604" lon="6.17393">
        <ele>1403.6</ele>
        <time>2021-07-13T01:20:47.91Z</time>
      </trkpt>
      <trkpt lat="45.04604" lon="6.1741">
        <ele>1411</ele>
        <time>2021-07-13T01:21:01.64Z</time>
      </trkpt>
      <trkpt lat="45.04604" lon="6.17422">
        <ele>1415.6</ele>
        <time>2021-07-13T01:21:11.33Z</time>
      </trkpt>
      <trkpt lat="45.04603" lon="6.17427">
        <ele>1416.5</ele>
        <time>2021-07-13T01:21:15.53Z</time>
      </trkpt>
      <trkpt lat="45.04599" lon="6.17428">
        <ele>1413.7</ele>
        <time>2021-07-13T01:21:20.17Z</time>
      </trkpt>
      <trkpt lat="45.04594" lon="6.17428">
        <ele>1409.7</ele>
        <time>2021-07-13T01:21:25.88Z</time>
      </trkpt>
      <trkpt lat="45.04591" lon="6.17436">
        <ele>1409.9</ele>
        <time>2021-07-13T01:21:33.20Z</time>
      </trkpt>
      <trkpt lat="45.04592" lon="6.17447">
        <ele>1414.1</ele>
        <time>2021-07-13T01:21:42.15Z</time>
      </trkpt>
      <trkpt lat="45.04588" lon="6.17467">
        <ele>1417</ele>
        <time>2021-07-13T01:21:58.93Z</time>
      </trkpt>
      <trkpt lat="45.04586" lon="6.17475">
        <ele>1417.7</ele>
        <time>2021-07-13T01:22:05.79Z</time>
      </trkpt>
      <trkpt lat="45.04577" lon="6.1748">
        <ele>1415.3</ele>
        <time>2021-07-13T01:22:16.84Z</time>
      </trkpt>
      <trkpt lat="45.04576" lon="6.17484">
        <ele>1416.2</ele>
        <time>2021-07-13T01:22:20.26Z</time>
      </trkpt>
      <trkpt lat="45.04575" lon="6.17497">
        <ele>1420</ele>
        <time>2021-07-13T01:22:30.82Z</time>
      </trkpt>
      <trkpt lat="45.04571" lon="6.17508">
        <ele>1422.5</ele>
        <time>2021-07-13T01:22:40.81Z</time>
      </trkpt>
      <trkpt lat="45.04568" lon="6.17522">
        <ele>1426.3</ele>
        <time>2021-07-13T01:22:52.63Z</time>
      </trkpt>
      <trkpt lat="45.04566" lon="6.17533">
        <ele>1429.4</ele>
        <time>2021-07-13T01:23:01.80Z</time>
      </trkpt>
      <trkpt lat="45.04565" lon="6.17538">
        <ele>1430.7</ele>
        <time>2021-07-13T01:23:05.99Z</time>
      </trkpt>
      <trkpt lat="45.04557" lon="6.17541">
        <ele>1429.5</ele>
        <time>2021-07-13T01:23:15.45Z</time>
      </trkpt>
      <trkpt lat="45.04551" lon="6.17538">
        <ele>1426.9</ele>
        <time>2021-07-13T01:23:22.72Z</time>
      </trkpt>
      <trkpt lat="45.0454" lon="6.17536">
        <ele>1423.3</ele>
        <time>2021-07-13T01:23:35.40Z</time>
      </trkpt>
      <trkpt lat="45.04529" lon="6.17526">
        <ele>1417.2</ele>
        <time>2021-07-13T01:23:50.34Z</time>
      </trkpt>
      <trkpt lat="45.04526" lon="6.17527">
        <ele>1416.7</ele>
        <time>2021-07-13T01:23:53.86Z</time>
      </trkpt>
      <trkpt lat="45.04524" lon="6.1753">
        <ele>1417.1</ele>
        <time>2021-07-13T01:23:57.19Z</time>
      </trkpt>
      <trkpt lat="45.04523" lon="6.17539">
        <ele>1419.5</ele>
        <time>2021-07-13T01:24:04.55Z</time>
      </trkpt>
      <trkpt lat="45.04517" lon="6.17548">
        <ele>1420.6</ele>
        <time>2021-07-13T01:24:14.54Z</time>
      </trkpt>
      <trkpt lat="45.0451" lon="6.17548">
        <ele>1418.6</ele>
        <time>2021-07-13T01:24:22.54Z</time>
      </trkpt>
      <trkpt lat="45.04503" lon="6.17552">
        <ele>1417.8</ele>
        <time>2021-07-13T01:24:31.17Z</time>
      </trkpt>
      <trkpt lat="45.045" lon="6.17553">
        <ele>1417.3</ele>
        <time>2021-07-13T01:24:34.69Z</time>
      </trkpt>
      <trkpt lat="45.04496" lon="6.17544">
        <ele>1414.7</ele>
        <time>2021-07-13T01:24:43.28Z</time>
      </trkpt>
      <trkpt lat="45.04491" lon="6.17536">
        <ele>1412.4</ele>
        <time>2021-07-13T01:24:51.90Z</time>
      </trkpt>
      <trkpt lat="45.04477" lon="6.17532">
        <ele>1411.3</ele>
        <time>2021-07-13T01:25:08.22Z</time>
      </trkpt>
      <trkpt lat="45.04462" lon="6.17532">
        <ele>1411.4</ele>
        <time>2021-07-13T01:25:25.37Z</time>
      </trkpt>
      <trkpt lat="45.04445" lon="6.17537">
        <ele>1412.8</ele>
        <time>2021-07-13T01:25:45.21Z</time>
      </trkpt>
      <trkpt lat="45.04442" lon="6.17541">
        <ele>1413.8</ele>
        <time>2021-07-13T01:25:49.92Z</time>
      </trkpt>
      <trkpt lat="45.04429" lon="6.17561">
        <ele>1418.8</ele>
        <time>2021-07-13T01:26:11.86Z</time>
      </trkpt>
      <trkpt lat="45.04418" lon="6.17576">
        <ele>1422.3</ele>
        <time>2021-07-13T01:26:29.32Z</time>
      </trkpt>
      <trkpt lat="45.04405" lon="6.17608">
        <ele>1427.3</ele>
        <time>2021-07-13T01:26:59.13Z</time>
      </trkpt>
      <trkpt lat="45.04404" lon="6.17612">
        <ele>1427.7</ele>
        <time>2021-07-13T01:27:02.56Z</time>
      </trkpt>
      <trkpt lat="45.044" lon="6.17635">
        <ele>1430.1</ele>
        <time>2021-07-13T01:27:21.68Z</time>
      </trkpt>
      <trkpt lat="45.04395" lon="6.17718">
        <ele>1442.8</ele>
        <time>2021-07-13T01:28:28.95Z</time>
      </trkpt>
      <trkpt lat="45.0439" lon="6.17729">
        <ele>1443.9</ele>
        <time>2021-07-13T01:28:39.51Z</time>
      </trkpt>
      <trkpt lat="45.04383" lon="6.17755">
        <ele>1447.5</ele>
        <time>2021-07-13T01:29:01.98Z</time>
      </trkpt>
      <trkpt lat="45.04375" lon="6.17788">
        <ele>1453.2</ele>
        <time>2021-07-13T01:29:30.15Z</time>
      </trkpt>
      <trkpt lat="45.04373" lon="6.17802">
        <ele>1455.9</ele>
        <time>2021-07-13T01:29:41.68Z</time>
      </trkpt>
      <trkpt lat="45.04369" lon="6.17815">
        <ele>1458.1</ele>
        <time>2021-07-13T01:29:53.13Z</time>
      </trkpt>
      <trkpt lat="45.04364" lon="6.17826">
        <ele>1459.6</ele>
        <time>2021-07-13T01:30:03.70Z</time>
      </trkpt>
      <trkpt lat="45.04361" lon="6.17837">
        <ele>1461.6</ele>
        <time>2021-07-13T01:30:13.22Z</time>
      </trkpt>
      <trkpt lat="45.0436" lon="6.17844">
        <ele>1463.3</ele>
        <time>2021-07-13T01:30:18.98Z</time>
      </trkpt>
      <trkpt lat="45.0436" lon="6.17854">
        <ele>1466</ele>
        <time>2021-07-13T01:30:27.06Z</time>
      </trkpt>
      <trkpt lat="45.0436" lon="6.17861">
        <ele>1467.9</ele>
        <time>2021-07-13T01:30:32.71Z</time>
      </trkpt>
      <trkpt lat="45.04361" lon="6.17874">
        <ele>1471.6</ele>
        <time>2021-07-13T01:30:43.27Z</time>
      </trkpt>
      <trkpt lat="45.04359" lon="6.1789">
        <ele>1475.7</ele>
        <time>2021-07-13T01:30:56.39Z</time>
      </trkpt>
      <trkpt lat="45.04358" lon="6.17906">
        <ele>1480.1</ele>
        <time>2021-07-13T01:31:09.36Z</time>
      </trkpt>
      <trkpt lat="45.0436" lon="6.17922">
        <ele>1483.7</ele>
        <time>2021-07-13T01:31:22.48Z</time>
      </trkpt>
      <trkpt lat="45.04357" lon="6.17936">
        <ele>1485.3</ele>
        <time>2021-07-13T01:31:34.30Z</time>
      </trkpt>
      <trkpt lat="45.0436" lon="6.17965">
        <ele>1488.9</ele>
        <time>2021-07-13T01:31:57.96Z</time>
      </trkpt>
      <trkpt lat="45.04366" lon="6.17987">
        <ele>1492.2</ele>
        <time>2021-07-13T01:32:17.01Z</time>
      </trkpt>
      <trkpt lat="45.04369" lon="6.17998">
        <ele>1494</ele>
        <time>2021-07-13T01:32:26.53Z</time>
      </trkpt>
      <trkpt lat="45.04374" lon="6.18008">
        <ele>1495.7</ele>
        <time>2021-07-13T01:32:36.42Z</time>
      </trkpt>
      <trkpt lat="45.0438" lon="6.1803">
        <ele>1498.6</ele>
        <time>2021-07-13T01:32:55.46Z</time>
      </trkpt>
      <trkpt lat="45.04381" lon="6.1804">
        <ele>1499.6</ele>
        <time>2021-07-13T01:33:03.62Z</time>
      </trkpt>
      <trkpt lat="45.04378" lon="6.18057">
        <ele>1501.1</ele>
        <time>2021-07-13T01:33:17.77Z</time>
      </trkpt>
      <trkpt lat="45.04378" lon="6.18068">
        <ele>1502.1</ele>
        <time>2021-07-13T01:33:26.65Z</time>
      </trkpt>
      <trkpt lat="45.04385" lon="6.18088">
        <ele>1504.8</ele>
        <time>2021-07-13T01:33:44.67Z</time>
      </trkpt>
      <trkpt lat="45.04384" lon="6.18127">
        <ele>1510.2</ele>
        <time>2021-07-13T01:34:16.19Z</time>
      </trkpt>
      <trkpt lat="45.04378" lon="6.18155">
        <ele>1514.2</ele>
        <time>2021-07-13T01:34:39.81Z</time>
      </trkpt>
      <trkpt lat="45.04369" lon="6.18161">
        <ele>1515.3</ele>
        <time>2021-07-13T01:34:51.18Z</time>
      </trkpt>
      <trkpt lat="45.04364" lon="6.18167">
        <ele>1516.3</ele>
        <time>2021-07-13T01:34:58.67Z</time>
      </trkpt>
      <trkpt lat="45.04361" lon="6.18182">
        <ele>1518.4</ele>
        <time>2021-07-13T01:35:11.26Z</time>
      </trkpt>
      <trkpt lat="45.04357" lon="6.18192">
        <ele>1519.8</ele>
        <time>2021-07-13T01:35:20.54Z</time>
      </trkpt>
      <trkpt lat="45.04356" lon="6.18201">
        <ele>1520.9</ele>
        <time>2021-07-13T01:35:27.90Z</time>
      </trkpt>
      <trkpt lat="45.04359" lon="6.18211">
        <ele>1522.3</ele>
        <time>2021-07-13T01:35:36.67Z</time>
      </trkpt>
      <trkpt lat="45.04358" lon="6.18231">
        <ele>1525</ele>
        <time>2021-07-13T01:35:52.86Z</time>
      </trkpt>
      <trkpt lat="45.0436" lon="6.18237">
        <ele>1525.8</ele>
        <time>2021-07-13T01:35:58.22Z</time>
      </trkpt>
      <trkpt lat="45.04359" lon="6.18244">
        <ele>1526.7</ele>
        <time>2021-07-13T01:36:03.99Z</time>
      </trkpt>
      <trkpt lat="45.04359" lon="6.18251">
        <ele>1527.5</ele>
        <time>2021-07-13T01:36:09.64Z</time>
      </trkpt>
      <trkpt lat="45.0436" lon="6.18259">
        <ele>1527.6</ele>
        <time>2021-07-13T01:36:16.20Z</time>
      </trkpt>
      <trkpt lat="45.04357" lon="6.18266">
        <ele>1527.4</ele>
        <time>2021-07-13T01:36:22.81Z</time>
      </trkpt>
      <trkpt lat="45.04361" lon="6.18275">
        <ele>1527.7</ele>
        <time>2021-07-13T01:36:31.40Z</time>
      </trkpt>
      <trkpt lat="45.04367" lon="6.18278">
        <ele>1528.2</ele>
        <time>2021-07-13T01:36:38.67Z</time>
      </trkpt>
      <trkpt lat="45.04371" lon="6.18274">
        <ele>1528.5</ele>
        <time>2021-07-13T01:36:44.27Z</time>
      </trkpt>
      <trkpt lat="45.04377" lon="6.18269">
        <ele>1528.9</ele>
        <time>2021-07-13T01:36:52.22Z</time>
      </trkpt>
      <trkpt lat="45.04384" lon="6.18272">
        <ele>1529.5</ele>
        <time>2021-07-13T01:37:00.58Z</time>
      </trkpt>
      <trkpt lat="45.04394" lon="6.1828">
        <ele>1530.5</ele>
        <time>2021-07-13T01:37:13.71Z</time>
      </trkpt>
      <trkpt lat="45.04397" lon="6.18286">
        <ele>1530.9</ele>
        <time>2021-07-13T01:37:19.65Z</time>
      </trkpt>
      <trkpt lat="45.04402" lon="6.18292">
        <ele>1531.6</ele>
        <time>2021-07-13T01:37:27.14Z</time>
      </trkpt>
      <trkpt lat="45.04407" lon="6.18294">
        <ele>1532.2</ele>
        <time>2021-07-13T01:37:33.08Z</time>
      </trkpt>
      <trkpt lat="45.04413" lon="6.18292">
        <ele>1532.7</ele>
        <time>2021-07-13T01:37:40.12Z</time>
      </trkpt>
      <trkpt lat="45.04425" lon="6.18282">
        <ele>1535.5</ele>
        <time>2021-07-13T01:37:56.04Z</time>
      </trkpt>
      <trkpt lat="45.04431" lon="6.18277">
        <ele>1537.4</ele>
        <time>2021-07-13T01:38:03.99Z</time>
      </trkpt>
      <trkpt lat="45.04443" lon="6.18277">
        <ele>1541.6</ele>
        <time>2021-07-13T01:38:17.71Z</time>
      </trkpt>
      <trkpt lat="45.04451" lon="6.18276">
        <ele>1544.4</ele>
        <time>2021-07-13T01:38:26.89Z</time>
      </trkpt>
      <trkpt lat="45.04456" lon="6.18272">
        <ele>1545.8</ele>
        <time>2021-07-13T01:38:33.45Z</time>
      </trkpt>
      <trkpt lat="45.0447" lon="6.18252">
        <ele>1548.5</ele>
        <time>2021-07-13T01:38:56.18Z</time>
      </trkpt>
      <trkpt lat="45.04476" lon="6.18244">
        <ele>1549.5</ele>
        <time>2021-07-13T01:39:05.60Z</time>
      </trkpt>
      <trkpt lat="45.04479" lon="6.1825">
        <ele>1551.2</ele>
        <time>2021-07-13T01:39:11.54Z</time>
      </trkpt>
      <trkpt lat="45.04478" lon="6.18271">
        <ele>1553.4</ele>
        <time>2021-07-13T01:39:28.54Z</time>
      </trkpt>
      <trkpt lat="45.04478" lon="6.18297">
        <ele>1556.4</ele>
        <time>2021-07-13T01:39:49.53Z</time>
      </trkpt>
      <trkpt lat="45.04481" lon="6.18328">
        <ele>1561.4</ele>
        <time>2021-07-13T01:40:14.80Z</time>
      </trkpt>
      <trkpt lat="45.04492" lon="6.18343">
        <ele>1567.1</ele>
        <time>2021-07-13T01:40:32.25Z</time>
      </trkpt>
      <trkpt lat="45.04502" lon="6.18359">
        <ele>1572.6</ele>
        <time>2021-07-13T01:40:49.50Z</time>
      </trkpt>
      <trkpt lat="45.04513" lon="6.18372">
        <ele>1580.5</ele>
        <time>2021-07-13T01:41:05.88Z</time>
      </trkpt>
      <trkpt lat="45.04516" lon="6.18371">
        <ele>1582.5</ele>
        <time>2021-07-13T01:41:09.40Z</time>
      </trkpt>
      <trkpt lat="45.04522" lon="6.18366">
        <ele>1586.2</ele>
        <time>2021-07-13T01:41:17.36Z</time>
      </trkpt>
      <trkpt lat="45.04526" lon="6.18382">
        <ele>1589.6</ele>
        <time>2021-07-13T01:41:31.06Z</time>
      </trkpt>
      <trkpt lat="45.04534" lon="6.18369">
        <ele>1594.4</ele>
        <time>2021-07-13T01:41:44.99Z</time>
      </trkpt>
      <trkpt lat="45.04544" lon="6.18344">
        <ele>1600</ele>
        <time>2021-07-13T01:42:08.18Z</time>
      </trkpt>
      <trkpt lat="45.04552" lon="6.18312">
        <ele>1603.3</ele>
        <time>2021-07-13T01:42:35.59Z</time>
      </trkpt>
      <trkpt lat="45.04556" lon="6.18321">
        <ele>1606.8</ele>
        <time>2021-07-13T01:42:44.18Z</time>
      </trkpt>
      <trkpt lat="45.04564" lon="6.18343">
        <ele>1613.4</ele>
        <time>2021-07-13T01:43:04.16Z</time>
      </trkpt>
      <trkpt lat="45.04574" lon="6.18371">
        <ele>1621.1</ele>
        <time>2021-07-13T01:43:29.49Z</time>
      </trkpt>
      <trkpt lat="45.04582" lon="6.18398">
        <ele>1627.4</ele>
        <time>2021-07-13T01:43:53.13Z</time>
      </trkpt>
      <trkpt lat="45.0459" lon="6.18426">
        <ele>1631.9</ele>
        <time>2021-07-13T01:44:17.52Z</time>
      </trkpt>
      <trkpt lat="45.04595" lon="6.18417">
        <ele>1635.4</ele>
        <time>2021-07-13T01:44:26.76Z</time>
      </trkpt>
      <trkpt lat="45.046" lon="6.1839">
        <ele>1639.9</ele>
        <time>2021-07-13T01:44:49.30Z</time>
      </trkpt>
      <trkpt lat="45.04606" lon="6.18422">
        <ele>1641.4</ele>
        <time>2021-07-13T01:45:16.04Z</time>
      </trkpt>
      <trkpt lat="45.04612" lon="6.18396">
        <ele>1647.6</ele>
        <time>2021-07-13T01:45:38.12Z</time>
      </trkpt>
      <trkpt lat="45.04617" lon="6.18378">
        <ele>1653.9</ele>
        <time>2021-07-13T01:45:53.74Z</time>
      </trkpt>
      <trkpt lat="45.04625" lon="6.18418">
        <ele>1652.1</ele>
        <time>2021-07-13T01:46:27.31Z</time>
      </trkpt>
      <trkpt lat="45.04634" lon="6.18451">
        <ele>1660.3</ele>
        <time>2021-07-13T01:46:55.87Z</time>
      </trkpt>
      <trkpt lat="45.04636" lon="6.18465">
        <ele>1663.1</ele>
        <time>2021-07-13T01:47:07.40Z</time>
      </trkpt>
      <trkpt lat="45.04635" lon="6.18484">
        <ele>1664.3</ele>
        <time>2021-07-13T01:47:22.79Z</time>
      </trkpt>
      <trkpt lat="45.04643" lon="6.18482">
        <ele>1670.6</ele>
        <time>2021-07-13T01:47:32.07Z</time>
      </trkpt>
      <trkpt lat="45.0465" lon="6.18479">
        <ele>1675.8</ele>
        <time>2021-07-13T01:47:40.43Z</time>
      </trkpt>
      <trkpt lat="45.04651" lon="6.18497">
        <ele>1679.6</ele>
        <time>2021-07-13T01:47:55.01Z</time>
      </trkpt>
      <trkpt lat="45.04648" lon="6.18511">
        <ele>1676.3</ele>
        <time>2021-07-13T01:48:06.82Z</time>
      </trkpt>
      <trkpt lat="45.04642" lon="6.18527">
        <ele>1669.6</ele>
        <time>2021-07-13T01:48:21.45Z</time>
      </trkpt>
      <trkpt lat="45.04646" lon="6.18539">
        <ele>1671.8</ele>
        <time>2021-07-13T01:48:32.16Z</time>
      </trkpt>
      <trkpt lat="45.04652" lon="6.18556">
        <ele>1674.9</ele>
        <time>2021-07-13T01:48:47.51Z</time>
      </trkpt>
      <trkpt lat="45.04658" lon="6.18577">
        <ele>1677.2</ele>
        <time>2021-07-13T01:49:05.80Z</time>
      </trkpt>
      <trkpt lat="45.04662" lon="6.18584">
        <ele>1679.4</ele>
        <time>2021-07-13T01:49:13.07Z</time>
      </trkpt>
      <trkpt lat="45.04672" lon="6.18593">
        <ele>1687.1</ele>
        <time>2021-07-13T01:49:26.61Z</time>
      </trkpt>
      <trkpt lat="45.04675" lon="6.18589">
        <ele>1689.9</ele>
        <time>2021-07-13T01:49:31.32Z</time>
      </trkpt>
      <trkpt lat="45.04678" lon="6.18562">
        <ele>1696.2</ele>
        <time>2021-07-13T01:49:53.39Z</time>
      </trkpt>
      <trkpt lat="45.04696" lon="6.18623">
        <ele>1704.3</ele>
        <time>2021-07-13T01:50:46.77Z</time>
      </trkpt>
      <trkpt lat="45.04708" lon="6.18586">
        <ele>1718.8</ele>
        <time>2021-07-13T01:51:19.64Z</time>
      </trkpt>
      <trkpt lat="45.0472" lon="6.18598">
        <ele>1727.3</ele>
        <time>2021-07-13T01:51:36.43Z</time>
      </trkpt>
      <trkpt lat="45.04736" lon="6.18605">
        <ele>1739.5</ele>
        <time>2021-07-13T01:51:55.57Z</time>
      </trkpt>
      <trkpt lat="45.04761" lon="6.18607">
        <ele>1758.2</ele>
        <time>2021-07-13T01:52:24.19Z</time>
      </trkpt>
      <trkpt lat="45.04798" lon="6.18643">
        <ele>1773</ele>
        <time>2021-07-13T01:53:15.50Z</time>
      </trkpt>
      <trkpt lat="45.04849" lon="6.18676">
        <ele>1797.9</ele>
        <time>2021-07-13T01:54:19.59Z</time>
      </trkpt>
      <trkpt lat="45.04858" lon="6.18691">
        <ele>1803.2</ele>
        <time>2021-07-13T01:54:35.48Z</time>
      </trkpt>
      <trkpt lat="45.04874" lon="6.18715">
        <ele>1809.7</ele>
        <time>2021-07-13T01:55:02.13Z</time>
      </trkpt>
      <trkpt lat="45.04881" lon="6.18731">
        <ele>1810.7</ele>
        <time>2021-07-13T01:55:17.32Z</time>
      </trkpt>
      <trkpt lat="45.04882" lon="6.18735">
        <ele>1810.5</ele>
        <time>2021-07-13T01:55:20.75Z</time>
      </trkpt>
      <trkpt lat="45.04879" lon="6.18741">
        <ele>1808.5</ele>
        <time>2021-07-13T01:55:26.68Z</time>
      </trkpt>
      <trkpt lat="45.0487" lon="6.18749">
        <ele>1804.5</ele>
        <time>2021-07-13T01:55:38.83Z</time>
      </trkpt>
      <trkpt lat="45.04866" lon="6.18753">
        <ele>1803.8</ele>
        <time>2021-07-13T01:55:44.42Z</time>
      </trkpt>
      <trkpt lat="45.04866" lon="6.18762">
        <ele>1805.8</ele>
        <time>2021-07-13T01:55:51.69Z</time>
      </trkpt>
      <trkpt lat="45.04866" lon="6.18767">
        <ele>1806.9</ele>
        <time>2021-07-13T01:55:55.73Z</time>
      </trkpt>
      <trkpt lat="45.04864" lon="6.18771">
        <ele>1807.1</ele>
        <time>2021-07-13T01:55:59.69Z</time>
      </trkpt>
      <trkpt lat="45.04857" lon="6.18769">
        <ele>1804.3</ele>
        <time>2021-07-13T01:56:07.85Z</time>
      </trkpt>
      <trkpt lat="45.04846" lon="6.18764">
        <ele>1799.7</ele>
        <time>2021-07-13T01:56:21.05Z</time>
      </trkpt>
      <trkpt lat="45.04833" lon="6.1876">
        <ele>1794.7</ele>
        <time>2021-07-13T01:56:36.25Z</time>
      </trkpt>
      <trkpt lat="45.04822" lon="6.18761">
        <ele>1790.4</ele>
        <time>2021-07-13T01:56:48.85Z</time>
      </trkpt>
      <trkpt lat="45.04811" lon="6.18768">
        <ele>1788</ele>
        <time>2021-07-13T01:57:02.64Z</time>
      </trkpt>
      <trkpt lat="45.04804" lon="6.18781">
        <ele>1790</ele>
        <time>2021-07-13T01:57:15.83Z</time>
      </trkpt>
      <trkpt lat="45.04805" lon="6.18792">
        <ele>1794</ele>
        <time>2021-07-13T01:57:24.79Z</time>
      </trkpt>
      <trkpt lat="45.04811" lon="6.18797">
        <ele>1796.9</ele>
        <time>2021-07-13T01:57:32.75Z</time>
      </trkpt>
      <trkpt lat="45.04814" lon="6.18802">
        <ele>1799</ele>
        <time>2021-07-13T01:57:38.04Z</time>
      </trkpt>
      <trkpt lat="45.0481" lon="6.18808">
        <ele>1800.1</ele>
        <time>2021-07-13T01:57:44.70Z</time>
      </trkpt>
      <trkpt lat="45.04815" lon="6.1881">
        <ele>1801.4</ele>
        <time>2021-07-13T01:57:50.64Z</time>
      </trkpt>
      <trkpt lat="45.04804" lon="6.18821">
        <ele>1803.7</ele>
        <time>2021-07-13T01:58:06.03Z</time>
      </trkpt>
      <trkpt lat="45.0481" lon="6.18823">
        <ele>1804.8</ele>
        <time>2021-07-13T01:58:13.08Z</time>
      </trkpt>
      <trkpt lat="45.04813" lon="6.18825">
        <ele>1805.5</ele>
        <time>2021-07-13T01:58:16.87Z</time>
      </trkpt>
      <trkpt lat="45.04821" lon="6.18826">
        <ele>1806.2</ele>
        <time>2021-07-13T01:58:26.05Z</time>
      </trkpt>
      <trkpt lat="45.04827" lon="6.1883">
        <ele>1807.3</ele>
        <time>2021-07-13T01:58:33.63Z</time>
      </trkpt>
      <trkpt lat="45.04826" lon="6.18836">
        <ele>1809.4</ele>
        <time>2021-07-13T01:58:38.60Z</time>
      </trkpt>
      <trkpt lat="45.04824" lon="6.18841">
        <ele>1811.9</ele>
        <time>2021-07-13T01:58:43.24Z</time>
      </trkpt>
      <trkpt lat="45.04827" lon="6.18844">
        <ele>1813.8</ele>
        <time>2021-07-13T01:58:47.44Z</time>
      </trkpt>
      <trkpt lat="45.04824" lon="6.18851">
        <ele>1817</ele>
        <time>2021-07-13T01:58:54.05Z</time>
      </trkpt>
      <trkpt lat="45.04824" lon="6.18855">
        <ele>1819.1</ele>
        <time>2021-07-13T01:58:57.28Z</time>
      </trkpt>
      <trkpt lat="45.04828" lon="6.18855">
        <ele>1819.9</ele>
        <time>2021-07-13T01:59:01.85Z</time>
      </trkpt>
      <trkpt lat="45.04838" lon="6.18852">
        <ele>1821.1</ele>
        <time>2021-07-13T01:59:13.54Z</time>
      </trkpt>
      <trkpt lat="45.04842" lon="6.18854">
        <ele>1824</ele>
        <time>2021-07-13T01:59:18.38Z</time>
      </trkpt>
      <trkpt lat="45.04848" lon="6.18855">
        <ele>1827.1</ele>
        <time>2021-07-13T01:59:25.29Z</time>
      </trkpt>
      <trkpt lat="45.04851" lon="6.18858">
        <ele>1830.1</ele>
        <time>2021-07-13T01:59:29.49Z</time>
      </trkpt>
      <trkpt lat="45.04849" lon="6.18864">
        <ele>1832.9</ele>
        <time>2021-07-13T01:59:34.84Z</time>
      </trkpt>
      <trkpt lat="45.04842" lon="6.18869">
        <ele>1833</ele>
        <time>2021-07-13T01:59:43.80Z</time>
      </trkpt>
      <trkpt lat="45.04832" lon="6.18874">
        <ele>1831.9</ele>
        <time>2021-07-13T01:59:55.93Z</time>
      </trkpt>
      <trkpt lat="45.04823" lon="6.18877">
        <ele>1829.9</ele>
        <time>2021-07-13T02:00:06.49Z</time>
      </trkpt>
      <trkpt lat="45.04818" lon="6.18888">
        <ele>1832.8</ele>
        <time>2021-07-13T02:00:17.05Z</time>
      </trkpt>
      <trkpt lat="45.04817" lon="6.18892">
        <ele>1834.1</ele>
        <time>2021-07-13T02:00:20.48Z</time>
      </trkpt>
      <trkpt lat="45.04823" lon="6.18893">
        <ele>1837.9</ele>
        <time>2021-07-13T02:00:27.38Z</time>
      </trkpt>
      <trkpt lat="45.04824" lon="6.18896">
        <ele>1840</ele>
        <time>2021-07-13T02:00:30.06Z</time>
      </trkpt>
      <trkpt lat="45.0482" lon="6.18901">
        <ele>1840</ele>
        <time>2021-07-13T02:00:36.16Z</time>
      </trkpt>
      <trkpt lat="45.0481" lon="6.18907">
        <ele>1835.9</ele>
        <time>2021-07-13T02:00:48.57Z</time>
      </trkpt>
      <trkpt lat="45.04801" lon="6.18907">
        <ele>1829.6</ele>
        <time>2021-07-13T02:00:58.86Z</time>
      </trkpt>
      <trkpt lat="45.04795" lon="6.18908">
        <ele>1825.6</ele>
        <time>2021-07-13T02:01:05.76Z</time>
      </trkpt>
      <trkpt lat="45.04797" lon="6.18914">
        <ele>1828.5</ele>
        <time>2021-07-13T02:01:11.12Z</time>
      </trkpt>
      <trkpt lat="45.04789" lon="6.18918">
        <ele>1824.9</ele>
        <time>2021-07-13T02:01:20.82Z</time>
      </trkpt>
      <trkpt lat="45.04776" lon="6.18925">
        <ele>1826.6</ele>
        <time>2021-07-13T02:01:36.71Z</time>
      </trkpt>
      <trkpt lat="45.04768" lon="6.18927">
        <ele>1824.6</ele>
        <time>2021-07-13T02:01:46Z</time>
      </trkpt>
      <trkpt lat="45.04761" lon="6.1893">
        <ele>1825.4</ele>
        <time>2021-07-13T02:01:54.36Z</time>
      </trkpt>
      <trkpt lat="45.04762" lon="6.18936">
        <ele>1837.1</ele>
        <time>2021-07-13T02:01:59.33Z</time>
      </trkpt>
      <trkpt lat="45.04767" lon="6.18941">
        <ele>1848.9</ele>
        <time>2021-07-13T02:02:06.33Z</time>
      </trkpt>
      <trkpt lat="45.04764" lon="6.18945">
        <ele>1854.6</ele>
        <time>2021-07-13T02:02:11.04Z</time>
      </trkpt>
      <trkpt lat="45.0476" lon="6.18949">
        <ele>1860.2</ele>
        <time>2021-07-13T02:02:16.64Z</time>
      </trkpt>
      <trkpt lat="45.04756" lon="6.18961">
        <ele>1881.5</ele>
        <time>2021-07-13T02:02:27.35Z</time>
      </trkpt>
      <trkpt lat="45.04757" lon="6.18965">
        <ele>1889.3</ele>
        <time>2021-07-13T02:02:30.78Z</time>
      </trkpt>
      <trkpt lat="45.04748" lon="6.18985">
        <ele>1921.8</ele>
        <time>2021-07-13T02:02:49.93Z</time>
      </trkpt>
      <trkpt lat="45.04742" lon="6.18993">
        <ele>1919.3</ele>
        <time>2021-07-13T02:02:59.35Z</time>
      </trkpt>
      <trkpt lat="45.04739" lon="6.18998">
        <ele>1918.7</ele>
        <time>2021-07-13T02:03:04.64Z</time>
      </trkpt>
      <trkpt lat="45.04738" lon="6.19001">
        <ele>1919.1</ele>
        <time>2021-07-13T02:03:07.32Z</time>
      </trkpt>
      <trkpt lat="45.04745" lon="6.19002">
        <ele>1941.4</ele>
        <time>2021-07-13T02:03:15.36Z</time>
      </trkpt>
      <trkpt lat="45.04742" lon="6.19017">
        <ele>1934.9</ele>
        <time>2021-07-13T02:03:27.95Z</time>
      </trkpt>
      <trkpt lat="45.04738" lon="6.19021">
        <ele>1924.9</ele>
        <time>2021-07-13T02:03:33.55Z</time>
      </trkpt>
      <trkpt lat="45.0474" lon="6.19025">
        <ele>1931.3</ele>
        <time>2021-07-13T02:03:37.50Z</time>
      </trkpt>
      <trkpt lat="45.04745" lon="6.19028">
        <ele>1944.8</ele>
        <time>2021-07-13T02:03:43.71Z</time>
      </trkpt>
      <trkpt lat="45.0475" lon="6.19035">
        <ele>1957.8</ele>
        <time>2021-07-13T02:03:51.75Z</time>
      </trkpt>
      <trkpt lat="45.04758" lon="6.19036">
        <ele>1957</ele>
        <time>2021-07-13T02:04:00.93Z</time>
      </trkpt>
      <trkpt lat="45.04761" lon="6.19037">
        <ele>1956.7</ele>
        <time>2021-07-13T02:04:04.45Z</time>
      </trkpt>
      <trkpt lat="45.04763" lon="6.19043">
        <ele>1956.8</ele>
        <time>2021-07-13T02:04:09.80Z</time>
      </trkpt>
      <trkpt lat="45.0478" lon="6.19055">
        <ele>1956.1</ele>
        <time>2021-07-13T02:04:31.52Z</time>
      </trkpt>
      <trkpt lat="45.04801" lon="6.19068">
        <ele>1956.1</ele>
        <time>2021-07-13T02:04:57.71Z</time>
      </trkpt>
      <trkpt lat="45.04808" lon="6.19071">
        <ele>1956.1</ele>
        <time>2021-07-13T02:05:06.07Z</time>
      </trkpt>
      <trkpt lat="45.04813" lon="6.19075">
        <ele>1956.4</ele>
        <time>2021-07-13T02:05:12.63Z</time>
      </trkpt>
      <trkpt lat="45.04819" lon="6.19082">
        <ele>1957.2</ele>
        <time>2021-07-13T02:05:21.52Z</time>
      </trkpt>
      <trkpt lat="45.04824" lon="6.19083">
        <ele>1957.2</ele>
        <time>2021-07-13T02:05:27.29Z</time>
      </trkpt>
      <trkpt lat="45.04838" lon="6.1909">
        <ele>1958.1</ele>
        <time>2021-07-13T02:05:44.26Z</time>
      </trkpt>
      <trkpt lat="45.04849" lon="6.19098">
        <ele>1960.6</ele>
        <time>2021-07-13T02:05:58.39Z</time>
      </trkpt>
      <trkpt lat="45.04862" lon="6.19106">
        <ele>1964.2</ele>
        <time>2021-07-13T02:06:14.59Z</time>
      </trkpt>
      <trkpt lat="45.04866" lon="6.19114">
        <ele>1966.7</ele>
        <time>2021-07-13T02:06:22.51Z</time>
      </trkpt>
      <trkpt lat="45.04871" lon="6.19127">
        <ele>1970.9</ele>
        <time>2021-07-13T02:06:34.46Z</time>
      </trkpt>
      <trkpt lat="45.04879" lon="6.19138">
        <ele>1976.1</ele>
        <time>2021-07-13T02:06:47.21Z</time>
      </trkpt>
      <trkpt lat="45.04882" lon="6.19149">
        <ele>1980.2</ele>
        <time>2021-07-13T02:06:56.73Z</time>
      </trkpt>
      <trkpt lat="45.04885" lon="6.19166">
        <ele>1986.4</ele>
        <time>2021-07-13T02:07:10.87Z</time>
      </trkpt>
      <trkpt lat="45.04885" lon="6.19182">
        <ele>1994.6</ele>
        <time>2021-07-13T02:07:23.79Z</time>
      </trkpt>
      <trkpt lat="45.04886" lon="6.19201">
        <ele>2005</ele>
        <time>2021-07-13T02:07:39.18Z</time>
      </trkpt>
      <trkpt lat="45.04891" lon="6.1922">
        <ele>2016.9</ele>
        <time>2021-07-13T02:07:55.55Z</time>
      </trkpt>
      <trkpt lat="45.04892" lon="6.19236">
        <ele>2025.5</ele>
        <time>2021-07-13T02:08:08.52Z</time>
      </trkpt>
      <trkpt lat="45.04886" lon="6.19249">
        <ele>2030.2</ele>
        <time>2021-07-13T02:08:21.05Z</time>
      </trkpt>
      <trkpt lat="45.04884" lon="6.19259">
        <ele>2033.7</ele>
        <time>2021-07-13T02:08:29.45Z</time>
      </trkpt>
      <trkpt lat="45.0488" lon="6.19265">
        <ele>2034.9</ele>
        <time>2021-07-13T02:08:36.11Z</time>
      </trkpt>
      <trkpt lat="45.0487" lon="6.19276">
        <ele>2036.1</ele>
        <time>2021-07-13T02:08:50.58Z</time>
      </trkpt>
      <trkpt lat="45.04862" lon="6.19286">
        <ele>2037.6</ele>
        <time>2021-07-13T02:09:02.78Z</time>
      </trkpt>
      <trkpt lat="45.04857" lon="6.19296">
        <ele>2040.1</ele>
        <time>2021-07-13T02:09:12.67Z</time>
      </trkpt>
      <trkpt lat="45.04853" lon="6.19302">
        <ele>2041.3</ele>
        <time>2021-07-13T02:09:19.33Z</time>
      </trkpt>
      <trkpt lat="45.04846" lon="6.1931">
        <ele>2042.3</ele>
        <time>2021-07-13T02:09:29.61Z</time>
      </trkpt>
      <trkpt lat="45.04847" lon="6.19313">
        <ele>2043.9</ele>
        <time>2021-07-13T02:09:32.29Z</time>
      </trkpt>
      <trkpt lat="45.04853" lon="6.1931">
        <ele>2044.6</ele>
        <time>2021-07-13T02:09:39.57Z</time>
      </trkpt>
      <trkpt lat="45.04861" lon="6.19308">
        <ele>2046.4</ele>
        <time>2021-07-13T02:09:48.85Z</time>
      </trkpt>
      <trkpt lat="45.04863" lon="6.19309">
        <ele>2047.5</ele>
        <time>2021-07-13T02:09:51.27Z</time>
      </trkpt>
      <trkpt lat="45.0486" lon="6.19316">
        <ele>2049.4</ele>
        <time>2021-07-13T02:09:57.88Z</time>
      </trkpt>
      <trkpt lat="45.04854" lon="6.19324">
        <ele>2050.8</ele>
        <time>2021-07-13T02:10:07.30Z</time>
      </trkpt>
      <trkpt lat="45.04851" lon="6.1933">
        <ele>2052.3</ele>
        <time>2021-07-13T02:10:13.24Z</time>
      </trkpt>
      <trkpt lat="45.04852" lon="6.19336">
        <ele>2055</ele>
        <time>2021-07-13T02:10:18.22Z</time>
      </trkpt>
      <trkpt lat="45.04855" lon="6.19337">
        <ele>2056.3</ele>
        <time>2021-07-13T02:10:21.74Z</time>
      </trkpt>
      <trkpt lat="45.04858" lon="6.19337">
        <ele>2057.3</ele>
        <time>2021-07-13T02:10:25.17Z</time>
      </trkpt>
      <trkpt lat="45.04857" lon="6.19347">
        <ele>2060.6</ele>
        <time>2021-07-13T02:10:33.32Z</time>
      </trkpt>
      <trkpt lat="45.04851" lon="6.19382">
        <ele>2071.3</ele>
        <time>2021-07-13T02:11:02.40Z</time>
      </trkpt>
      <trkpt lat="45.04849" lon="6.19404">
        <ele>2078.7</ele>
        <time>2021-07-13T02:11:20.31Z</time>
      </trkpt>
      <trkpt lat="45.04845" lon="6.19414">
        <ele>2081.2</ele>
        <time>2021-07-13T02:11:29.59Z</time>
      </trkpt>
      <trkpt lat="45.0484" lon="6.19419">
        <ele>2081.7</ele>
        <time>2021-07-13T02:11:36.59Z</time>
      </trkpt>
      <trkpt lat="45.04833" lon="6.1942">
        <ele>2080.1</ele>
        <time>2021-07-13T02:11:44.63Z</time>
      </trkpt>
      <trkpt lat="45.04829" lon="6.19425">
        <ele>2081</ele>
        <time>2021-07-13T02:11:50.73Z</time>
      </trkpt>
      <trkpt lat="45.04831" lon="6.1944">
        <ele>2086.9</ele>
        <time>2021-07-13T02:12:03.05Z</time>
      </trkpt>
      <trkpt lat="45.0483" lon="6.19448">
        <ele>2089.5</ele>
        <time>2021-07-13T02:12:09.61Z</time>
      </trkpt>
      <trkpt lat="45.04824" lon="6.19451">
        <ele>2089.3</ele>
        <time>2021-07-13T02:12:16.89Z</time>
      </trkpt>
      <trkpt lat="45.04822" lon="6.19454">
        <ele>2089.9</ele>
        <time>2021-07-13T02:12:20.22Z</time>
      </trkpt>
      <trkpt lat="45.04824" lon="6.19459">
        <ele>2092.2</ele>
        <time>2021-07-13T02:12:24.86Z</time>
      </trkpt>
      <trkpt lat="45.04826" lon="6.19465">
        <ele>2094.8</ele>
        <time>2021-07-13T02:12:30.21Z</time>
      </trkpt>
      <trkpt lat="45.0483" lon="6.19467">
        <ele>2096.4</ele>
        <time>2021-07-13T02:12:35.06Z</time>
      </trkpt>
      <trkpt lat="45.04833" lon="6.19473">
        <ele>2099.2</ele>
        <time>2021-07-13T02:12:41Z</time>
      </trkpt>
      <trkpt lat="45.04832" lon="6.19477">
        <ele>2100.4</ele>
        <time>2021-07-13T02:12:44.42Z</time>
      </trkpt>
      <trkpt lat="45.04824" lon="6.19484">
        <ele>2101.3</ele>
        <time>2021-07-13T02:12:55.17Z</time>
      </trkpt>
      <trkpt lat="45.04823" lon="6.19492">
        <ele>2104</ele>
        <time>2021-07-13T02:13:01.73Z</time>
      </trkpt>
      <trkpt lat="45.04824" lon="6.19498">
        <ele>2106.4</ele>
        <time>2021-07-13T02:13:06.71Z</time>
      </trkpt>
      <trkpt lat="45.04823" lon="6.19502">
        <ele>2107.5</ele>
        <time>2021-07-13T02:13:10.13Z</time>
      </trkpt>
      <trkpt lat="45.04818" lon="6.19503">
        <ele>2106.8</ele>
        <time>2021-07-13T02:13:15.91Z</time>
      </trkpt>
      <trkpt lat="45.04811" lon="6.19504">
        <ele>2105.8</ele>
        <time>2021-07-13T02:13:23.95Z</time>
      </trkpt>
      <trkpt lat="45.04802" lon="6.19503">
        <ele>2103.7</ele>
        <time>2021-07-13T02:13:34.26Z</time>
      </trkpt>
      <trkpt lat="45.04797" lon="6.19507">
        <ele>2104.3</ele>
        <time>2021-07-13T02:13:40.83Z</time>
      </trkpt>
      <trkpt lat="45.04796" lon="6.19512">
        <ele>2106.1</ele>
        <time>2021-07-13T02:13:45.02Z</time>
      </trkpt>
      <trkpt lat="45.04802" lon="6.19513">
        <ele>2107.4</ele>
        <time>2021-07-13T02:13:51.93Z</time>
      </trkpt>
      <trkpt lat="45.04803" lon="6.19518">
        <ele>2109.4</ele>
        <time>2021-07-13T02:13:56.12Z</time>
      </trkpt>
      <trkpt lat="45.04801" lon="6.19525">
        <ele>2111.7</ele>
        <time>2021-07-13T02:14:02.22Z</time>
      </trkpt>
      <trkpt lat="45.04798" lon="6.1953">
        <ele>2113.3</ele>
        <time>2021-07-13T02:14:07.52Z</time>
      </trkpt>
      <trkpt lat="45.048" lon="6.19533">
        <ele>2114.6</ele>
        <time>2021-07-13T02:14:10.85Z</time>
      </trkpt>
      <trkpt lat="45.04807" lon="6.19533">
        <ele>2115.4</ele>
        <time>2021-07-13T02:14:18.85Z</time>
      </trkpt>
      <trkpt lat="45.04808" lon="6.19536">
        <ele>2116.5</ele>
        <time>2021-07-13T02:14:21.53Z</time>
      </trkpt>
      <trkpt lat="45.04806" lon="6.19539">
        <ele>2117.4</ele>
        <time>2021-07-13T02:14:24.86Z</time>
      </trkpt>
      <trkpt lat="45.04801" lon="6.19547">
        <ele>2120</ele>
        <time>2021-07-13T02:14:33.48Z</time>
      </trkpt>
      <trkpt lat="45.04805" lon="6.19547">
        <ele>2120.2</ele>
        <time>2021-07-13T02:14:38.05Z</time>
      </trkpt>
      <trkpt lat="45.04811" lon="6.19548">
        <ele>2120.9</ele>
        <time>2021-07-13T02:14:44.96Z</time>
      </trkpt>
      <trkpt lat="45.04811" lon="6.19558">
        <ele>2124.4</ele>
        <time>2021-07-13T02:14:53.03Z</time>
      </trkpt>
      <trkpt lat="45.04808" lon="6.19561">
        <ele>2125.3</ele>
        <time>2021-07-13T02:14:57.23Z</time>
      </trkpt>
      <trkpt lat="45.04806" lon="6.19591">
        <ele>2136.3</ele>
        <time>2021-07-13T02:15:21.56Z</time>
      </trkpt>
      <trkpt lat="45.048" lon="6.19598">
        <ele>2139.1</ele>
        <time>2021-07-13T02:15:30.45Z</time>
      </trkpt>
      <trkpt lat="45.04793" lon="6.19609">
        <ele>2143.2</ele>
        <time>2021-07-13T02:15:42.40Z</time>
      </trkpt>
      <trkpt lat="45.04791" lon="6.19621">
        <ele>2147.5</ele>
        <time>2021-07-13T02:15:52.36Z</time>
      </trkpt>
      <trkpt lat="45.04788" lon="6.19633">
        <ele>2151.7</ele>
        <time>2021-07-13T02:16:02.63Z</time>
      </trkpt>
      <trkpt lat="45.04786" lon="6.19657">
        <ele>2160</ele>
        <time>2021-07-13T02:16:22.15Z</time>
      </trkpt>
      <trkpt lat="45.04788" lon="6.19673">
        <ele>2164.2</ele>
        <time>2021-07-13T02:16:35.27Z</time>
      </trkpt>
      <trkpt lat="45.04794" lon="6.19683">
        <ele>2165.8</ele>
        <time>2021-07-13T02:16:45.86Z</time>
      </trkpt>
      <trkpt lat="45.04802" lon="6.19684">
        <ele>2166.7</ele>
        <time>2021-07-13T02:16:55.04Z</time>
      </trkpt>
      <trkpt lat="45.04804" lon="6.19681">
        <ele>2166.7</ele>
        <time>2021-07-13T02:16:58.37Z</time>
      </trkpt>
      <trkpt lat="45.04803" lon="6.19676">
        <ele>2166.2</ele>
        <time>2021-07-13T02:17:02.56Z</time>
      </trkpt>
      <trkpt lat="45.04807" lon="6.19673">
        <ele>2166.4</ele>
        <time>2021-07-13T02:17:07.74Z</time>
      </trkpt>
      <trkpt lat="45.04808" lon="6.19679">
        <ele>2167</ele>
        <time>2021-07-13T02:17:12.72Z</time>
      </trkpt>
      <trkpt lat="45.04812" lon="6.19692">
        <ele>2168.4</ele>
        <time>2021-07-13T02:17:24.16Z</time>
      </trkpt>
      <trkpt lat="45.04819" lon="6.197">
        <ele>2169.7</ele>
        <time>2021-07-13T02:17:34.45Z</time>
      </trkpt>
      <trkpt lat="45.04833" lon="6.19707">
        <ele>2171.4</ele>
        <time>2021-07-13T02:17:51.42Z</time>
      </trkpt>
      <trkpt lat="45.04842" lon="6.19713">
        <ele>2172.3</ele>
        <time>2021-07-13T02:18:02.79Z</time>
      </trkpt>
      <trkpt lat="45.04851" lon="6.19725">
        <ele>2173.5</ele>
        <time>2021-07-13T02:18:16.92Z</time>
      </trkpt>
      <trkpt lat="45.0486" lon="6.19735">
        <ele>2174.6</ele>
        <time>2021-07-13T02:18:29.99Z</time>
      </trkpt>
      <trkpt lat="45.04867" lon="6.19747">
        <ele>2175.5</ele>
        <time>2021-07-13T02:18:42.56Z</time>
      </trkpt>
      <trkpt lat="45.04876" lon="6.19754">
        <ele>2175.9</ele>
        <time>2021-07-13T02:18:54.29Z</time>
      </trkpt>
      <trkpt lat="45.04882" lon="6.19759">
        <ele>2176</ele>
        <time>2021-07-13T02:19:02.25Z</time>
      </trkpt>
      <trkpt lat="45.04894" lon="6.19778">
        <ele>2176.3</ele>
        <time>2021-07-13T02:19:22.83Z</time>
      </trkpt>
      <trkpt lat="45.04911" lon="6.19805">
        <ele>2177.4</ele>
        <time>2021-07-13T02:19:52.03Z</time>
      </trkpt>
      <trkpt lat="45.04926" lon="6.19825">
        <ele>2180.7</ele>
        <time>2021-07-13T02:20:15.58Z</time>
      </trkpt>
      <trkpt lat="45.04935" lon="6.19835">
        <ele>2183.4</ele>
        <time>2021-07-13T02:20:28.66Z</time>
      </trkpt>
      <trkpt lat="45.04943" lon="6.19842">
        <ele>2186</ele>
        <time>2021-07-13T02:20:39.41Z</time>
      </trkpt>
      <trkpt lat="45.04945" lon="6.19849">
        <ele>2186.8</ele>
        <time>2021-07-13T02:20:45.50Z</time>
      </trkpt>
      <trkpt lat="45.04951" lon="6.19862">
        <ele>2189</ele>
        <time>2021-07-13T02:20:58.04Z</time>
      </trkpt>
      <trkpt lat="45.04958" lon="6.19878">
        <ele>2191.5</ele>
        <time>2021-07-13T02:21:13.24Z</time>
      </trkpt>
      <trkpt lat="45.04963" lon="6.19899">
        <ele>2193.5</ele>
        <time>2021-07-13T02:21:31.13Z</time>
      </trkpt>
      <trkpt lat="45.04967" lon="6.19927">
        <ele>2194.9</ele>
        <time>2021-07-13T02:21:54.19Z</time>
      </trkpt>
      <trkpt lat="45.04971" lon="6.19957">
        <ele>2195.2</ele>
        <time>2021-07-13T02:22:18.84Z</time>
      </trkpt>
      <trkpt lat="45.04973" lon="6.19987">
        <ele>2195.1</ele>
        <time>2021-07-13T02:22:43.17Z</time>
      </trkpt>
      <trkpt lat="45.0498" lon="6.20037">
        <ele>2195.6</ele>
        <time>2021-07-13T02:23:24.33Z</time>
      </trkpt>
      <trkpt lat="45.04984" lon="6.20066">
        <ele>2195.8</ele>
        <time>2021-07-13T02:23:48.19Z</time>
      </trkpt>
      <trkpt lat="45.04992" lon="6.20104">
        <ele>2196.8</ele>
        <time>2021-07-13T02:24:20.20Z</time>
      </trkpt>
      <trkpt lat="45.04997" lon="6.20136">
        <ele>2197.1</ele>
        <time>2021-07-13T02:24:46.67Z</time>
      </trkpt>
      <trkpt lat="45.05003" lon="6.20183">
        <ele>2198.7</ele>
        <time>2021-07-13T02:25:25.23Z</time>
      </trkpt>
      <trkpt lat="45.05004" lon="6.20207">
        <ele>2200.2</ele>
        <time>2021-07-13T02:25:44.64Z</time>
      </trkpt>
      <trkpt lat="45.05009" lon="6.2025">
        <ele>2203.7</ele>
        <time>2021-07-13T02:26:19.83Z</time>
      </trkpt>
      <trkpt lat="45.05013" lon="6.20283">
        <ele>2205.3</ele>
        <time>2021-07-13T02:26:46.86Z</time>
      </trkpt>
      <trkpt lat="45.05016" lon="6.20303">
        <ele>2206.4</ele>
        <time>2021-07-13T02:27:03.37Z</time>
      </trkpt>
      <trkpt lat="45.05019" lon="6.20317">
        <ele>2207.5</ele>
        <time>2021-07-13T02:27:15.18Z</time>
      </trkpt>
      <trkpt lat="45.05017" lon="6.20329">
        <ele>2207</ele>
        <time>2021-07-13T02:27:25.14Z</time>
      </trkpt>
      <trkpt lat="45.0503" lon="6.20355">
        <ele>2210.1</ele>
        <time>2021-07-13T02:27:50.85Z</time>
      </trkpt>
      <trkpt lat="45.05043" lon="6.20377">
        <ele>2213.1</ele>
        <time>2021-07-13T02:28:14.01Z</time>
      </trkpt>
      <trkpt lat="45.0505" lon="6.20395">
        <ele>2214.3</ele>
        <time>2021-07-13T02:28:30.60Z</time>
      </trkpt>
      <trkpt lat="45.05057" lon="6.20414">
        <ele>2215.5</ele>
        <time>2021-07-13T02:28:47.90Z</time>
      </trkpt>
      <trkpt lat="45.05058" lon="6.2043">
        <ele>2214.9</ele>
        <time>2021-07-13T02:29:00.87Z</time>
      </trkpt>
      <trkpt lat="45.05058" lon="6.20445">
        <ele>2213.9</ele>
        <time>2021-07-13T02:29:12.98Z</time>
      </trkpt>
      <trkpt lat="45.05057" lon="6.20455">
        <ele>2213</ele>
        <time>2021-07-13T02:29:21.14Z</time>
      </trkpt>
      <trkpt lat="45.05059" lon="6.20463">
        <ele>2213</ele>
        <time>2021-07-13T02:29:27.99Z</time>
      </trkpt>
      <trkpt lat="45.05063" lon="6.20474">
        <ele>2213.2</ele>
        <time>2021-07-13T02:29:37.98Z</time>
      </trkpt>
      <trkpt lat="45.0507" lon="6.2048">
        <ele>2214.2</ele>
        <time>2021-07-13T02:29:47.33Z</time>
      </trkpt>
      <trkpt lat="45.05088" lon="6.20494">
        <ele>2217</ele>
        <time>2021-07-13T02:30:10.80Z</time>
      </trkpt>
      <trkpt lat="45.05097" lon="6.20505">
        <ele>2218.4</ele>
        <time>2021-07-13T02:30:24.39Z</time>
      </trkpt>
      <trkpt lat="45.05104" lon="6.20518">
        <ele>2218.6</ele>
        <time>2021-07-13T02:30:37.59Z</time>
      </trkpt>
      <trkpt lat="45.05113" lon="6.20544">
        <ele>2217.6</ele>
        <time>2021-07-13T02:31:00.97Z</time>
      </trkpt>
      <trkpt lat="45.0512" lon="6.20556">
        <ele>2217.9</ele>
        <time>2021-07-13T02:31:13.53Z</time>
      </trkpt>
      <trkpt lat="45.05129" lon="6.20569">
        <ele>2218.8</ele>
        <time>2021-07-13T02:31:28.23Z</time>
      </trkpt>
      <trkpt lat="45.05143" lon="6.20584">
        <ele>2220.7</ele>
        <time>2021-07-13T02:31:48.29Z</time>
      </trkpt>
      <trkpt lat="45.05153" lon="6.20597">
        <ele>2220.1</ele>
        <time>2021-07-13T02:32:03.81Z</time>
      </trkpt>
      <trkpt lat="45.05165" lon="6.20617">
        <ele>2219.3</ele>
        <time>2021-07-13T02:32:25Z</time>
      </trkpt>
      <trkpt lat="45.05176" lon="6.20637">
        <ele>2218.3</ele>
        <time>2021-07-13T02:32:45.46Z</time>
      </trkpt>
      <trkpt lat="45.0518" lon="6.20646">
        <ele>2217.5</ele>
        <time>2021-07-13T02:32:54.05Z</time>
      </trkpt>
      <trkpt lat="45.05183" lon="6.20654">
        <ele>2216.7</ele>
        <time>2021-07-13T02:33:01.36Z</time>
      </trkpt>
      <trkpt lat="45.05187" lon="6.20668">
        <ele>2214.9</ele>
        <time>2021-07-13T02:33:13.55Z</time>
      </trkpt>
      <trkpt lat="45.05193" lon="6.20702">
        <ele>2213.2</ele>
        <time>2021-07-13T02:33:41.85Z</time>
      </trkpt>
      <trkpt lat="45.05197" lon="6.20719">
        <ele>2212.6</ele>
        <time>2021-07-13T02:33:56.31Z</time>
      </trkpt>
      <trkpt lat="45.05203" lon="6.20732">
        <ele>2213</ele>
        <time>2021-07-13T02:34:08.85Z</time>
      </trkpt>
      <trkpt lat="45.05213" lon="6.20748">
        <ele>2214.1</ele>
        <time>2021-07-13T02:34:26.10Z</time>
      </trkpt>
      <trkpt lat="45.05224" lon="6.20762">
        <ele>2217.1</ele>
        <time>2021-07-13T02:34:43Z</time>
      </trkpt>
      <trkpt lat="45.05232" lon="6.20772">
        <ele>2219.2</ele>
        <time>2021-07-13T02:34:55.20Z</time>
      </trkpt>
      <trkpt lat="45.05238" lon="6.20775">
        <ele>2220.7</ele>
        <time>2021-07-13T02:35:02.47Z</time>
      </trkpt>
      <trkpt lat="45.05245" lon="6.20775">
        <ele>2222.5</ele>
        <time>2021-07-13T02:35:10.47Z</time>
      </trkpt>
      <trkpt lat="45.0526" lon="6.2077">
        <ele>2225.5</ele>
        <time>2021-07-13T02:35:28.09Z</time>
      </trkpt>
      <trkpt lat="45.05269" lon="6.2077">
        <ele>2226.7</ele>
        <time>2021-07-13T02:35:38.37Z</time>
      </trkpt>
      <trkpt lat="45.05275" lon="6.20773">
        <ele>2227.4</ele>
        <time>2021-07-13T02:35:45.64Z</time>
      </trkpt>
      <trkpt lat="45.0529" lon="6.20782">
        <ele>2228.8</ele>
        <time>2021-07-13T02:36:04.26Z</time>
      </trkpt>
      <trkpt lat="45.05328" lon="6.20816">
        <ele>2230.3</ele>
        <time>2021-07-13T02:36:55.64Z</time>
      </trkpt>
      <trkpt lat="45.05339" lon="6.20824">
        <ele>2230.5</ele>
        <time>2021-07-13T02:37:09.77Z</time>
      </trkpt>
      <trkpt lat="45.05356" lon="6.20833">
        <ele>2230.9</ele>
        <time>2021-07-13T02:37:30.52Z</time>
      </trkpt>
      <trkpt lat="45.05362" lon="6.20839">
        <ele>2231.5</ele>
        <time>2021-07-13T02:37:38.91Z</time>
      </trkpt>
      <trkpt lat="45.0538" lon="6.20863">
        <ele>2233.2</ele>
        <time>2021-07-13T02:38:07.17Z</time>
      </trkpt>
      <trkpt lat="45.05389" lon="6.20874">
        <ele>2233.8</ele>
        <time>2021-07-13T02:38:20.76Z</time>
      </trkpt>
      <trkpt lat="45.05409" lon="6.20891">
        <ele>2234.9</ele>
        <time>2021-07-13T02:38:47.42Z</time>
      </trkpt>
      <trkpt lat="45.05428" lon="6.20906">
        <ele>2235.4</ele>
        <time>2021-07-13T02:39:12.29Z</time>
      </trkpt>
      <trkpt lat="45.05449" lon="6.20916">
        <ele>2235.4</ele>
        <time>2021-07-13T02:39:37.61Z</time>
      </trkpt>
      <trkpt lat="45.05458" lon="6.20923">
        <ele>2235.7</ele>
        <time>2021-07-13T02:39:49.34Z</time>
      </trkpt>
      <trkpt lat="45.05464" lon="6.20932">
        <ele>2236</ele>
        <time>2021-07-13T02:39:59.33Z</time>
      </trkpt>
      <trkpt lat="45.05468" lon="6.20942">
        <ele>2236.3</ele>
        <time>2021-07-13T02:40:08.61Z</time>
      </trkpt>
      <trkpt lat="45.05472" lon="6.20953">
        <ele>2236.7</ele>
        <time>2021-07-13T02:40:18.60Z</time>
      </trkpt>
      <trkpt lat="45.05474" lon="6.20972">
        <ele>2237.2</ele>
        <time>2021-07-13T02:40:34.11Z</time>
      </trkpt>
      <trkpt lat="45.05478" lon="6.2099">
        <ele>2237.7</ele>
        <time>2021-07-13T02:40:49.34Z</time>
      </trkpt>
      <trkpt lat="45.05481" lon="6.21001">
        <ele>2238</ele>
        <time>2021-07-13T02:40:58.86Z</time>
      </trkpt>
      <trkpt lat="45.05512" lon="6.21063">
        <ele>2239.1</ele>
        <time>2021-07-13T02:42:00.19Z</time>
      </trkpt>
      <trkpt lat="45.05523" lon="6.21081">
        <ele>2239.5</ele>
        <time>2021-07-13T02:42:19.40Z</time>
      </trkpt>
      <trkpt lat="45.0553" lon="6.21087">
        <ele>2239.6</ele>
        <time>2021-07-13T02:42:28.76Z</time>
      </trkpt>
      <trkpt lat="45.05536" lon="6.21093">
        <ele>2239.6</ele>
        <time>2021-07-13T02:42:37.15Z</time>
      </trkpt>
      <trkpt lat="45.05556" lon="6.21107">
        <ele>2239.8</ele>
        <time>2021-07-13T02:43:02.65Z</time>
      </trkpt>
      <trkpt lat="45.05567" lon="6.21115">
        <ele>2240</ele>
        <time>2021-07-13T02:43:16.78Z</time>
      </trkpt>
      <trkpt lat="45.05569" lon="6.21117">
        <ele>2240</ele>
        <time>2021-07-13T02:43:19.58Z</time>
      </trkpt>
      <trkpt lat="45.05579" lon="6.21126">
        <ele>2240.3</ele>
        <time>2021-07-13T02:43:33.13Z</time>
      </trkpt>
      <trkpt lat="45.05591" lon="6.2114">
        <ele>2241.3</ele>
        <time>2021-07-13T02:43:50.90Z</time>
      </trkpt>
      <trkpt lat="45.05614" lon="6.2117">
        <ele>2244.2</ele>
        <time>2021-07-13T02:44:26.64Z</time>
      </trkpt>
      <trkpt lat="45.05634" lon="6.21195">
        <ele>2248</ele>
        <time>2021-07-13T02:44:57.13Z</time>
      </trkpt>
      <trkpt lat="45.05648" lon="6.21217">
        <ele>2250.6</ele>
        <time>2021-07-13T02:45:21.04Z</time>
      </trkpt>
      <trkpt lat="45.05656" lon="6.21228">
        <ele>2252</ele>
        <time>2021-07-13T02:45:33.78Z</time>
      </trkpt>
      <trkpt lat="45.05666" lon="6.21238">
        <ele>2253.5</ele>
        <time>2021-07-13T02:45:47.78Z</time>
      </trkpt>
      <trkpt lat="45.05688" lon="6.21254">
        <ele>2256.3</ele>
        <time>2021-07-13T02:46:16.04Z</time>
      </trkpt>
      <trkpt lat="45.05703" lon="6.21269">
        <ele>2257.9</ele>
        <time>2021-07-13T02:46:37.03Z</time>
      </trkpt>
      <trkpt lat="45.05706" lon="6.21277">
        <ele>2258.1</ele>
        <time>2021-07-13T02:46:44.34Z</time>
      </trkpt>
      <trkpt lat="45.05707" lon="6.21287">
        <ele>2258.2</ele>
        <time>2021-07-13T02:46:52.50Z</time>
      </trkpt>
      <trkpt lat="45.05706" lon="6.21293">
        <ele>2258</ele>
        <time>2021-07-13T02:46:57.47Z</time>
      </trkpt>
      <trkpt lat="45.05703" lon="6.21304">
        <ele>2257.7</ele>
        <time>2021-07-13T02:47:06.99Z</time>
      </trkpt>
      <trkpt lat="45.05699" lon="6.21324">
        <ele>2257.3</ele>
        <time>2021-07-13T02:47:23.77Z</time>
      </trkpt>
      <trkpt lat="45.05696" lon="6.21346">
        <ele>2255.8</ele>
        <time>2021-07-13T02:47:41.86Z</time>
      </trkpt>
      <trkpt lat="45.05697" lon="6.21368">
        <ele>2253.6</ele>
        <time>2021-07-13T02:47:59.66Z</time>
      </trkpt>
      <trkpt lat="45.057" lon="6.21378">
        <ele>2252.8</ele>
        <time>2021-07-13T02:48:08.43Z</time>
      </trkpt>
      <trkpt lat="45.05705" lon="6.21385">
        <ele>2252.5</ele>
        <time>2021-07-13T02:48:16.47Z</time>
      </trkpt>
      <trkpt lat="45.05712" lon="6.21391">
        <ele>2252.4</ele>
        <time>2021-07-13T02:48:25.82Z</time>
      </trkpt>
      <trkpt lat="45.0572" lon="6.21393">
        <ele>2252.9</ele>
        <time>2021-07-13T02:48:35.11Z</time>
      </trkpt>
      <trkpt lat="45.0573" lon="6.21391">
        <ele>2253.9</ele>
        <time>2021-07-13T02:48:46.65Z</time>
      </trkpt>
      <trkpt lat="45.05739" lon="6.2139">
        <ele>2254.7</ele>
        <time>2021-07-13T02:48:56.97Z</time>
      </trkpt>
      <trkpt lat="45.05746" lon="6.2139">
        <ele>2255.2</ele>
        <time>2021-07-13T02:49:04.97Z</time>
      </trkpt>
      <trkpt lat="45.05751" lon="6.21393">
        <ele>2255.3</ele>
        <time>2021-07-13T02:49:11.17Z</time>
      </trkpt>
      <trkpt lat="45.05764" lon="6.21405">
        <ele>2254.4</ele>
        <time>2021-07-13T02:49:28.91Z</time>
      </trkpt>
      <trkpt lat="45.05783" lon="6.21422">
        <ele>2251.9</ele>
        <time>2021-07-13T02:49:54.60Z</time>
      </trkpt>
      <trkpt lat="45.05794" lon="6.21429">
        <ele>2250.1</ele>
        <time>2021-07-13T02:50:08.38Z</time>
      </trkpt>
      <trkpt lat="45.05797" lon="6.2143">
        <ele>2249.8</ele>
        <time>2021-07-13T02:50:11.90Z</time>
      </trkpt>
      <trkpt lat="45.05802" lon="6.2143">
        <ele>2249.9</ele>
        <time>2021-07-13T02:50:17.62Z</time>
      </trkpt>
      <trkpt lat="45.05818" lon="6.21425">
        <ele>2251.6</ele>
        <time>2021-07-13T02:50:36.34Z</time>
      </trkpt>
      <trkpt lat="45.05821" lon="6.21436">
        <ele>2248.6</ele>
        <time>2021-07-13T02:50:45.86Z</time>
      </trkpt>
      <trkpt lat="45.05826" lon="6.21443">
        <ele>2246.9</ele>
        <time>2021-07-13T02:50:53.90Z</time>
      </trkpt>
      <trkpt lat="45.05837" lon="6.21456">
        <ele>2243.6</ele>
        <time>2021-07-13T02:51:10.27Z</time>
      </trkpt>
      <trkpt lat="45.05849" lon="6.21476">
        <ele>2238.4</ele>
        <time>2021-07-13T02:51:31.46Z</time>
      </trkpt>
      <trkpt lat="45.0586" lon="6.21491">
        <ele>2234.6</ele>
        <time>2021-07-13T02:51:48.91Z</time>
      </trkpt>
      <trkpt lat="45.05866" lon="6.21503">
        <ele>2231.8</ele>
        <time>2021-07-13T02:52:00.78Z</time>
      </trkpt>
      <trkpt lat="45.05881" lon="6.21529">
        <ele>2227.5</ele>
        <time>2021-07-13T02:52:27.88Z</time>
      </trkpt>
      <trkpt lat="45.05891" lon="6.21548">
        <ele>2224.7</ele>
        <time>2021-07-13T02:52:47.01Z</time>
      </trkpt>
      <trkpt lat="45.05905" lon="6.21569">
        <ele>2222.2</ele>
        <time>2021-07-13T02:53:10.32Z</time>
      </trkpt>
      <trkpt lat="45.05916" lon="6.21587">
        <ele>2220</ele>
        <time>2021-07-13T02:53:29.54Z</time>
      </trkpt>
      <trkpt lat="45.05928" lon="6.21603">
        <ele>2216.2</ele>
        <time>2021-07-13T02:53:48.38Z</time>
      </trkpt>
      <trkpt lat="45.05937" lon="6.21614">
        <ele>2213.4</ele>
        <time>2021-07-13T02:54:01.96Z</time>
      </trkpt>
      <trkpt lat="45.05954" lon="6.21628">
        <ele>2209.5</ele>
        <time>2021-07-13T02:54:24.44Z</time>
      </trkpt>
      <trkpt lat="45.05988" lon="6.2166">
        <ele>2198.7</ele>
        <time>2021-07-13T02:55:11.10Z</time>
      </trkpt>
      <trkpt lat="45.05996" lon="6.2167">
        <ele>2195.3</ele>
        <time>2021-07-13T02:55:23.30Z</time>
      </trkpt>
      <trkpt lat="45.06003" lon="6.21674">
        <ele>2194.7</ele>
        <time>2021-07-13T02:55:31.93Z</time>
      </trkpt>
      <trkpt lat="45.06009" lon="6.21686">
        <ele>2192.7</ele>
        <time>2021-07-13T02:55:43.79Z</time>
      </trkpt>
      <trkpt lat="45.06018" lon="6.21702">
        <ele>2190.1</ele>
        <time>2021-07-13T02:56:00.31Z</time>
      </trkpt>
      <trkpt lat="45.06061" lon="6.21764">
        <ele>2182.5</ele>
        <time>2021-07-13T02:57:10.45Z</time>
      </trkpt>
      <trkpt lat="45.06069" lon="6.21773">
        <ele>2182.3</ele>
        <time>2021-07-13T02:57:22.13Z</time>
      </trkpt>
      <trkpt lat="45.06073" lon="6.21778">
        <ele>2182.1</ele>
        <time>2021-07-13T02:57:28.23Z</time>
      </trkpt>
      <trkpt lat="45.0608" lon="6.21787">
        <ele>2181.5</ele>
        <time>2021-07-13T02:57:39.03Z</time>
      </trkpt>
      <trkpt lat="45.0609" lon="6.21804">
        <ele>2179.3</ele>
        <time>2021-07-13T02:57:56.89Z</time>
      </trkpt>
      <trkpt lat="45.06104" lon="6.21822">
        <ele>2177.3</ele>
        <time>2021-07-13T02:58:18.50Z</time>
      </trkpt>
      <trkpt lat="45.06114" lon="6.21839">
        <ele>2176.5</ele>
        <time>2021-07-13T02:58:36.36Z</time>
      </trkpt>
      <trkpt lat="45.06127" lon="6.21842">
        <ele>2177.5</ele>
        <time>2021-07-13T02:58:51.42Z</time>
      </trkpt>
      <trkpt lat="45.06144" lon="6.21849">
        <ele>2178.9</ele>
        <time>2021-07-13T02:59:11.65Z</time>
      </trkpt>
      <trkpt lat="45.06158" lon="6.21852">
        <ele>2179.7</ele>
        <time>2021-07-13T02:59:27.83Z</time>
      </trkpt>
      <trkpt lat="45.0617" lon="6.21859">
        <ele>2180.5</ele>
        <time>2021-07-13T02:59:42.67Z</time>
      </trkpt>
      <trkpt lat="45.06182" lon="6.21864">
        <ele>2181.4</ele>
        <time>2021-07-13T02:59:56.96Z</time>
      </trkpt>
      <trkpt lat="45.062" lon="6.21869">
        <ele>2182.8</ele>
        <time>2021-07-13T03:00:17.93Z</time>
      </trkpt>
      <trkpt lat="45.06217" lon="6.21872">
        <ele>2184</ele>
        <time>2021-07-13T03:00:37.50Z</time>
      </trkpt>
      <trkpt lat="45.06229" lon="6.21871">
        <ele>2184.9</ele>
        <time>2021-07-13T03:00:51.24Z</time>
      </trkpt>
      <trkpt lat="45.06238" lon="6.2187">
        <ele>2185.5</ele>
        <time>2021-07-13T03:01:01.56Z</time>
      </trkpt>
      <trkpt lat="45.06242" lon="6.21866">
        <ele>2185.6</ele>
        <time>2021-07-13T03:01:07.16Z</time>
      </trkpt>
      <trkpt lat="45.06248" lon="6.21861">
        <ele>2185.9</ele>
        <time>2021-07-13T03:01:15.11Z</time>
      </trkpt>
      <trkpt lat="45.06258" lon="6.21856">
        <ele>2186.1</ele>
        <time>2021-07-13T03:01:27.23Z</time>
      </trkpt>
      <trkpt lat="45.06267" lon="6.21856">
        <ele>2186.5</ele>
        <time>2021-07-13T03:01:37.52Z</time>
      </trkpt>
      <trkpt lat="45.06276" lon="6.2186">
        <ele>2186.9</ele>
        <time>2021-07-13T03:01:48.30Z</time>
      </trkpt>
      <trkpt lat="45.06289" lon="6.21871">
        <ele>2187.6</ele>
        <time>2021-07-13T03:02:05.61Z</time>
      </trkpt>
      <trkpt lat="45.06301" lon="6.2188">
        <ele>2188.1</ele>
        <time>2021-07-13T03:02:21.13Z</time>
      </trkpt>
      <trkpt lat="45.06305" lon="6.21886">
        <ele>2188.3</ele>
        <time>2021-07-13T03:02:27.79Z</time>
      </trkpt>
      <trkpt lat="45.06314" lon="6.21894">
        <ele>2188.6</ele>
        <time>2021-07-13T03:02:39.93Z</time>
      </trkpt>
      <trkpt lat="45.06323" lon="6.21898">
        <ele>2188.8</ele>
        <time>2021-07-13T03:02:50.71Z</time>
      </trkpt>
      <trkpt lat="45.06337" lon="6.21897">
        <ele>2189.1</ele>
        <time>2021-07-13T03:03:06.73Z</time>
      </trkpt>
      <trkpt lat="45.06341" lon="6.21894">
        <ele>2189.3</ele>
        <time>2021-07-13T03:03:11.91Z</time>
      </trkpt>
      <trkpt lat="45.06346" lon="6.21891">
        <ele>2189.4</ele>
        <time>2021-07-13T03:03:18.11Z</time>
      </trkpt>
      <trkpt lat="45.0635" lon="6.2189">
        <ele>2189.6</ele>
        <time>2021-07-13T03:03:22.76Z</time>
      </trkpt>
      <trkpt lat="45.06355" lon="6.21887">
        <ele>2189.8</ele>
        <time>2021-07-13T03:03:28.96Z</time>
      </trkpt>
      <trkpt lat="45.06358" lon="6.21882">
        <ele>2190</ele>
        <time>2021-07-13T03:03:34.26Z</time>
      </trkpt>
      <trkpt lat="45.06364" lon="6.2188">
        <ele>2190.2</ele>
        <time>2021-07-13T03:03:41.30Z</time>
      </trkpt>
      <trkpt lat="45.06369" lon="6.2188">
        <ele>2190.4</ele>
        <time>2021-07-13T03:03:47.02Z</time>
      </trkpt>
      <trkpt lat="45.06372" lon="6.21886">
        <ele>2190.4</ele>
        <time>2021-07-13T03:03:52.95Z</time>
      </trkpt>
      <trkpt lat="45.06376" lon="6.2189">
        <ele>2190.5</ele>
        <time>2021-07-13T03:03:58.55Z</time>
      </trkpt>
      <trkpt lat="45.0637" lon="6.21894">
        <ele>2190.2</ele>
        <time>2021-07-13T03:04:06.13Z</time>
      </trkpt>
      <trkpt lat="45.06372" lon="6.21899">
        <ele>2190.2</ele>
        <time>2021-07-13T03:04:10.77Z</time>
      </trkpt>
      <trkpt lat="45.06375" lon="6.21907">
        <ele>2190.2</ele>
        <time>2021-07-13T03:04:18.08Z</time>
      </trkpt>
      <trkpt lat="45.06379" lon="6.21912">
        <ele>2190.2</ele>
        <time>2021-07-13T03:04:24.18Z</time>
      </trkpt>
      <trkpt lat="45.06383" lon="6.21917">
        <ele>2190.2</ele>
        <time>2021-07-13T03:04:30.27Z</time>
      </trkpt>
      <trkpt lat="45.06386" lon="6.21921">
        <ele>2190.7</ele>
        <time>2021-07-13T03:04:34.98Z</time>
      </trkpt>
      <trkpt lat="45.0639" lon="6.21924">
        <ele>2191.1</ele>
        <time>2021-07-13T03:04:40.16Z</time>
      </trkpt>
      <trkpt lat="45.06401" lon="6.21927">
        <ele>2191.7</ele>
        <time>2021-07-13T03:04:52.96Z</time>
      </trkpt>
      <trkpt lat="45.06406" lon="6.21927">
        <ele>2191.8</ele>
        <time>2021-07-13T03:04:58.67Z</time>
      </trkpt>
      <trkpt lat="45.06423" lon="6.21924">
        <ele>2191.7</ele>
        <time>2021-07-13T03:05:18.25Z</time>
      </trkpt>
      <trkpt lat="45.06428" lon="6.21923">
        <ele>2191.7</ele>
        <time>2021-07-13T03:05:24.02Z</time>
      </trkpt>
      <trkpt lat="45.06434" lon="6.21922">
        <ele>2191.6</ele>
        <time>2021-07-13T03:05:30.93Z</time>
      </trkpt>
      <trkpt lat="45.06439" lon="6.2192">
        <ele>2191.5</ele>
        <time>2021-07-13T03:05:36.87Z</time>
      </trkpt>
      <trkpt lat="45.06444" lon="6.21919">
        <ele>2191.5</ele>
        <time>2021-07-13T03:05:42.64Z</time>
      </trkpt>
      <trkpt lat="45.0645" lon="6.21918">
        <ele>2191.5</ele>
        <time>2021-07-13T03:05:49.54Z</time>
      </trkpt>
      <trkpt lat="45.06455" lon="6.21921">
        <ele>2191.7</ele>
        <time>2021-07-13T03:05:55.75Z</time>
      </trkpt>
      <trkpt lat="45.0646" lon="6.21923">
        <ele>2191.9</ele>
        <time>2021-07-13T03:06:01.69Z</time>
      </trkpt>
      <trkpt lat="45.0647" lon="6.2193">
        <ele>2192.2</ele>
        <time>2021-07-13T03:06:14.43Z</time>
      </trkpt>
      <trkpt lat="45.06475" lon="6.21934">
        <ele>2192.3</ele>
        <time>2021-07-13T03:06:21Z</time>
      </trkpt>
      <trkpt lat="45.06479" lon="6.2194">
        <ele>2192.5</ele>
        <time>2021-07-13T03:06:27.66Z</time>
      </trkpt>
      <trkpt lat="45.06482" lon="6.21946">
        <ele>2192.7</ele>
        <time>2021-07-13T03:06:33.59Z</time>
      </trkpt>
      <trkpt lat="45.06485" lon="6.21952">
        <ele>2192.8</ele>
        <time>2021-07-13T03:06:39.53Z</time>
      </trkpt>
      <trkpt lat="45.06492" lon="6.21962">
        <ele>2192.8</ele>
        <time>2021-07-13T03:06:50.89Z</time>
      </trkpt>
      <trkpt lat="45.06495" lon="6.21967">
        <ele>2192.8</ele>
        <time>2021-07-13T03:06:56.19Z</time>
      </trkpt>
      <trkpt lat="45.065" lon="6.21971">
        <ele>2192.7</ele>
        <time>2021-07-13T03:07:02.75Z</time>
      </trkpt>
      <trkpt lat="45.06503" lon="6.21975">
        <ele>2192.8</ele>
        <time>2021-07-13T03:07:07.46Z</time>
      </trkpt>
      <trkpt lat="45.06512" lon="6.21983">
        <ele>2193</ele>
        <time>2021-07-13T03:07:19.60Z</time>
      </trkpt>
      <trkpt lat="45.06516" lon="6.21987">
        <ele>2193.1</ele>
        <time>2021-07-13T03:07:25.20Z</time>
      </trkpt>
      <trkpt lat="45.0652" lon="6.21991">
        <ele>2193.2</ele>
        <time>2021-07-13T03:07:30.80Z</time>
      </trkpt>
      <trkpt lat="45.06525" lon="6.21993">
        <ele>2193.3</ele>
        <time>2021-07-13T03:07:36.74Z</time>
      </trkpt>
      <trkpt lat="45.06529" lon="6.21998">
        <ele>2193.3</ele>
        <time>2021-07-13T03:07:42.83Z</time>
      </trkpt>
      <trkpt lat="45.06532" lon="6.22003">
        <ele>2193.6</ele>
        <time>2021-07-13T03:07:48.13Z</time>
      </trkpt>
      <trkpt lat="45.06534" lon="6.22009">
        <ele>2193.9</ele>
        <time>2021-07-13T03:07:53.48Z</time>
      </trkpt>
      <trkpt lat="45.06537" lon="6.22014">
        <ele>2194.2</ele>
        <time>2021-07-13T03:07:58.78Z</time>
      </trkpt>
      <trkpt lat="45.06539" lon="6.22021">
        <ele>2194.6</ele>
        <time>2021-07-13T03:08:04.88Z</time>
      </trkpt>
      <trkpt lat="45.06542" lon="6.22027">
        <ele>2195</ele>
        <time>2021-07-13T03:08:10.81Z</time>
      </trkpt>
      <trkpt lat="45.06545" lon="6.22032">
        <ele>2195.2</ele>
        <time>2021-07-13T03:08:16.11Z</time>
      </trkpt>
      <trkpt lat="45.06549" lon="6.22036">
        <ele>2195.4</ele>
        <time>2021-07-13T03:08:21.70Z</time>
      </trkpt>
      <trkpt lat="45.06552" lon="6.22041">
        <ele>2195.7</ele>
        <time>2021-07-13T03:08:27Z</time>
      </trkpt>
      <trkpt lat="45.06552" lon="6.22041">
        <ele>2195.7</ele>
        <time>2021-07-13T03:08:28.03Z</time>
      </trkpt>
      <trkpt lat="45.06516" lon="6.22113">
        <ele>2202.5</ele>
        <time>2021-07-13T03:09:39.23Z</time>
      </trkpt>
      <trkpt lat="45.06508" lon="6.22173">
        <ele>2210.9</ele>
        <time>2021-07-13T03:10:28.52Z</time>
      </trkpt>
      <trkpt lat="45.06508" lon="6.22193">
        <ele>2212.9</ele>
        <time>2021-07-13T03:10:44.66Z</time>
      </trkpt>
      <trkpt lat="45.06505" lon="6.22211">
        <ele>2215.1</ele>
        <time>2021-07-13T03:10:59.59Z</time>
      </trkpt>
      <trkpt lat="45.06505" lon="6.22227">
        <ele>2216.8</ele>
        <time>2021-07-13T03:11:12.51Z</time>
      </trkpt>
      <trkpt lat="45.06507" lon="6.22238">
        <ele>2217.6</ele>
        <time>2021-07-13T03:11:21.68Z</time>
      </trkpt>
      <trkpt lat="45.06502" lon="6.2228">
        <ele>2222.2</ele>
        <time>2021-07-13T03:11:56.06Z</time>
      </trkpt>
      <trkpt lat="45.06499" lon="6.22298">
        <ele>2224.2</ele>
        <time>2021-07-13T03:12:10.99Z</time>
      </trkpt>
      <trkpt lat="45.0649" lon="6.22323">
        <ele>2227.8</ele>
        <time>2021-07-13T03:12:33.64Z</time>
      </trkpt>
      <trkpt lat="45.06479" lon="6.22342">
        <ele>2231.3</ele>
        <time>2021-07-13T03:12:53.47Z</time>
      </trkpt>
      <trkpt lat="45.06467" lon="6.22362">
        <ele>2235</ele>
        <time>2021-07-13T03:13:14.65Z</time>
      </trkpt>
      <trkpt lat="45.06464" lon="6.22391">
        <ele>2238</ele>
        <time>2021-07-13T03:13:38.31Z</time>
      </trkpt>
      <trkpt lat="45.0646" lon="6.22421">
        <ele>2241.2</ele>
        <time>2021-07-13T03:14:02.95Z</time>
      </trkpt>
      <trkpt lat="45.06455" lon="6.22448">
        <ele>2244.5</ele>
        <time>2021-07-13T03:14:25.49Z</time>
      </trkpt>
      <trkpt lat="45.0645" lon="6.22477">
        <ele>2248.1</ele>
        <time>2021-07-13T03:14:49.58Z</time>
      </trkpt>
      <trkpt lat="45.06436" lon="6.22518">
        <ele>2252.9</ele>
        <time>2021-07-13T03:15:26.34Z</time>
      </trkpt>
    </trkseg>
  </trk>
</gpx>